<?xml version="1.0" encoding="UTF-8" standalone="no" ?>
<gpx xmlns="http://www.topografix.com/GPX/1/1" xmlns:xsi="http://www.w3.org/2001/XMLSchema-instance" xsi:schemaLocation="http://www.topografix.com/GPX/1/1 http://www.topografix.com/GPX/1/1/gpx.xsd" version="1.1" creator="VisuGPX - https://www.visugpx.com">
  <metadata>
    <name>Ajout Pyrénées</name>
    <desc><![CDATA[Randonnée sur le GR®654 Via Lemovicensis vers Saint-Jacques-de-Compostelle à travers les Landes et les Pyrénées-Atlantiques de Mont-de-Marsan à Saint-Palais. Gîtes d'étapes, Chambres d'hôtes, Maison d'hôtes, Hôtels, Camping, Refuges, Auberges, Commerces.]]></desc>
  </metadata>
  <trk>
    <name><![CDATA[GR®101 De Maubourguet au Col de Saucède (Hautes-Pyrénées) (2021)]]></name>
    <desc><![CDATA[Randonnée sur le GR®101 à travers les Hautes-Pyrénées de Maubourguet au Col de Saucède. Gîtes d'étapes, Chambres d'hôtes, Maison d'hôtes, Hôtels, Camping, Refuges, Auberges.]]></desc>
    <extensions>
      <line xmlns="http://www.topografix.com/GPX/gpx_style/0/2">
        <color>000000</color>
        <width>4</width>
      </line>
    </extensions>
    <trkseg>
      <trkpt lat="43.46333" lon="0.01592">
        <ele>179.043</ele>
        <time>2021-02-12T15:20:23Z</time>
      </trkpt>
      <trkpt lat="43.46295" lon="0.01565">
        <ele>179.764</ele>
        <time>2021-02-12T15:20:43Z</time>
      </trkpt>
      <trkpt lat="43.46047" lon="0.01584">
        <ele>181.01</ele>
        <time>2021-02-12T15:21:03Z</time>
      </trkpt>
      <trkpt lat="43.45967" lon="0.0158">
        <ele>181.408</ele>
        <time>2021-02-12T15:21:23Z</time>
      </trkpt>
      <trkpt lat="43.45912" lon="0.01548">
        <ele>182.04</ele>
        <time>2021-02-12T15:21:43Z</time>
      </trkpt>
      <trkpt lat="43.45878" lon="0.01539">
        <ele>181.819</ele>
        <time>2021-02-12T15:22:03Z</time>
      </trkpt>
      <trkpt lat="43.45862" lon="0.01516">
        <ele>181.59</ele>
        <time>2021-02-12T15:22:23Z</time>
      </trkpt>
      <trkpt lat="43.45545" lon="0.01541">
        <ele>182.235</ele>
        <time>2021-02-12T15:22:43Z</time>
      </trkpt>
      <trkpt lat="43.45497" lon="0.0153">
        <ele>182.635</ele>
        <time>2021-02-12T15:23:03Z</time>
      </trkpt>
      <trkpt lat="43.45392" lon="0.01521">
        <ele>182.384</ele>
        <time>2021-02-12T15:23:23Z</time>
      </trkpt>
      <trkpt lat="43.45317" lon="0.01541">
        <ele>183.24</ele>
        <time>2021-02-12T15:23:43Z</time>
      </trkpt>
      <trkpt lat="43.45278" lon="0.01568">
        <ele>183.786</ele>
        <time>2021-02-12T15:24:03Z</time>
      </trkpt>
      <trkpt lat="43.45019" lon="0.01568">
        <ele>184.943</ele>
        <time>2021-02-12T15:24:23Z</time>
      </trkpt>
      <trkpt lat="43.44924" lon="0.0162">
        <ele>184.964</ele>
        <time>2021-02-12T15:24:43Z</time>
      </trkpt>
      <trkpt lat="43.44794" lon="0.01637">
        <ele>185.61</ele>
        <time>2021-02-12T15:25:03Z</time>
      </trkpt>
      <trkpt lat="43.44743" lon="0.01646">
        <ele>186.208</ele>
        <time>2021-02-12T15:25:23Z</time>
      </trkpt>
      <trkpt lat="43.44708" lon="0.01623">
        <ele>187.07</ele>
        <time>2021-02-12T15:25:43Z</time>
      </trkpt>
      <trkpt lat="43.44657" lon="0.016">
        <ele>187.589</ele>
        <time>2021-02-12T15:26:03Z</time>
      </trkpt>
      <trkpt lat="43.44641" lon="0.01618">
        <ele>188.05</ele>
        <time>2021-02-12T15:26:23Z</time>
      </trkpt>
      <trkpt lat="43.44632" lon="0.0171">
        <ele>188.285</ele>
        <time>2021-02-12T15:26:43Z</time>
      </trkpt>
      <trkpt lat="43.44605" lon="0.01729">
        <ele>188.165</ele>
        <time>2021-02-12T15:27:03Z</time>
      </trkpt>
      <trkpt lat="43.44598" lon="0.01768">
        <ele>187.964</ele>
        <time>2021-02-12T15:27:23Z</time>
      </trkpt>
      <trkpt lat="43.44514" lon="0.01758">
        <ele>189.83</ele>
        <time>2021-02-12T15:27:43Z</time>
      </trkpt>
      <trkpt lat="43.44521" lon="0.01667">
        <ele>189.016</ele>
        <time>2021-02-12T15:28:03Z</time>
      </trkpt>
      <trkpt lat="43.44541" lon="0.01643">
        <ele>188.675</ele>
        <time>2021-02-12T15:28:23Z</time>
      </trkpt>
      <trkpt lat="43.44539" lon="0.01588">
        <ele>187.628</ele>
        <time>2021-02-12T15:28:43Z</time>
      </trkpt>
      <trkpt lat="43.44569" lon="0.01579">
        <ele>187.82</ele>
        <time>2021-02-12T15:29:03Z</time>
      </trkpt>
      <trkpt lat="43.44589" lon="0.01489">
        <ele>186.908</ele>
        <time>2021-02-12T15:29:23Z</time>
      </trkpt>
      <trkpt lat="43.44522" lon="0.01503">
        <ele>187.793</ele>
        <time>2021-02-12T15:29:43Z</time>
      </trkpt>
      <trkpt lat="43.44503" lon="0.01493">
        <ele>188.072</ele>
        <time>2021-02-12T15:30:03Z</time>
      </trkpt>
      <trkpt lat="43.44488" lon="0.0151">
        <ele>187.933</ele>
        <time>2021-02-12T15:30:23Z</time>
      </trkpt>
      <trkpt lat="43.44456" lon="0.0153">
        <ele>187.838</ele>
        <time>2021-02-12T15:30:43Z</time>
      </trkpt>
      <trkpt lat="43.4439" lon="0.0154">
        <ele>188.288</ele>
        <time>2021-02-12T15:31:03Z</time>
      </trkpt>
      <trkpt lat="43.44139" lon="0.01615">
        <ele>189.547</ele>
        <time>2021-02-12T15:31:23Z</time>
      </trkpt>
      <trkpt lat="43.44125" lon="0.01609">
        <ele>189.583</ele>
        <time>2021-02-12T15:31:43Z</time>
      </trkpt>
      <trkpt lat="43.44008" lon="0.01621">
        <ele>190.019</ele>
        <time>2021-02-12T15:32:03Z</time>
      </trkpt>
      <trkpt lat="43.4389" lon="0.01653">
        <ele>188.978</ele>
        <time>2021-02-12T15:32:23Z</time>
      </trkpt>
      <trkpt lat="43.43662" lon="0.01683">
        <ele>189.233</ele>
        <time>2021-02-12T15:32:43Z</time>
      </trkpt>
      <trkpt lat="43.43617" lon="0.01779">
        <ele>190.126</ele>
        <time>2021-02-12T15:33:03Z</time>
      </trkpt>
      <trkpt lat="43.43568" lon="0.01779">
        <ele>190.308</ele>
        <time>2021-02-12T15:33:23Z</time>
      </trkpt>
      <trkpt lat="43.43515" lon="0.01745">
        <ele>191.643</ele>
        <time>2021-02-12T15:33:43Z</time>
      </trkpt>
      <trkpt lat="43.43477" lon="0.01585">
        <ele>190.652</ele>
        <time>2021-02-12T15:34:03Z</time>
      </trkpt>
      <trkpt lat="43.43422" lon="0.01014">
        <ele>192.233</ele>
        <time>2021-02-12T15:34:23Z</time>
      </trkpt>
      <trkpt lat="43.43241" lon="0.01018">
        <ele>193.228</ele>
        <time>2021-02-12T15:34:43Z</time>
      </trkpt>
      <trkpt lat="43.43212" lon="0.01029">
        <ele>193.448</ele>
        <time>2021-02-12T15:35:03Z</time>
      </trkpt>
      <trkpt lat="43.43211" lon="0.00967">
        <ele>194.947</ele>
        <time>2021-02-12T15:35:23Z</time>
      </trkpt>
      <trkpt lat="43.4317" lon="0.00834">
        <ele>197.293</ele>
        <time>2021-02-12T15:35:43Z</time>
      </trkpt>
      <trkpt lat="43.4299" lon="0.00538">
        <ele>206.579</ele>
        <time>2021-02-12T15:36:03Z</time>
      </trkpt>
      <trkpt lat="43.42676" lon="0.00231">
        <ele>207.815</ele>
        <time>2021-02-12T15:36:23Z</time>
      </trkpt>
      <trkpt lat="43.42644" lon="0.00383">
        <ele>203.765</ele>
        <time>2021-02-12T15:36:43Z</time>
      </trkpt>
      <trkpt lat="43.42611" lon="0.00641">
        <ele>201.111</ele>
        <time>2021-02-12T15:37:03Z</time>
      </trkpt>
      <trkpt lat="43.42418" lon="0.00378">
        <ele>204.908</ele>
        <time>2021-02-12T15:37:23Z</time>
      </trkpt>
      <trkpt lat="43.4223" lon="0.0014">
        <ele>207.257</ele>
        <time>2021-02-12T15:37:43Z</time>
      </trkpt>
      <trkpt lat="43.421" lon="0.00038">
        <ele>209.576</ele>
        <time>2021-02-12T15:38:03Z</time>
      </trkpt>
      <trkpt lat="43.42119" lon="-9.0E-5">
        <ele>208.637</ele>
        <time>2021-02-12T15:38:23Z</time>
      </trkpt>
      <trkpt lat="43.41841" lon="-0.00379">
        <ele>213.462</ele>
        <time>2021-02-12T15:38:43Z</time>
      </trkpt>
      <trkpt lat="43.41698" lon="-0.00329">
        <ele>222.032</ele>
        <time>2016-10-27T16:29:15Z</time>
      </trkpt>
      <trkpt lat="43.41658" lon="-0.0029">
        <ele>228.051</ele>
        <time>2016-10-27T16:29:35Z</time>
      </trkpt>
      <trkpt lat="43.41477" lon="-0.00241">
        <ele>244.027</ele>
        <time>2016-10-27T16:29:55Z</time>
      </trkpt>
      <trkpt lat="43.41447" lon="-0.00228">
        <ele>246.033</ele>
        <time>2016-10-27T16:30:15Z</time>
      </trkpt>
      <trkpt lat="43.41426" lon="-0.0019">
        <ele>250.097</ele>
        <time>2016-10-27T16:30:35Z</time>
      </trkpt>
      <trkpt lat="43.41373" lon="-0.0014">
        <ele>259.023</ele>
        <time>2016-10-27T16:30:55Z</time>
      </trkpt>
      <trkpt lat="43.41324" lon="-0.00027">
        <ele>271.025</ele>
        <time>2016-10-27T16:31:15Z</time>
      </trkpt>
      <trkpt lat="43.41172" lon="0.00057">
        <ele>281.008</ele>
        <time>2016-10-27T16:31:35Z</time>
      </trkpt>
      <trkpt lat="43.41105" lon="0.00122">
        <ele>296.055</ele>
        <time>2016-10-27T16:31:55Z</time>
      </trkpt>
      <trkpt lat="43.40988" lon="0.00169">
        <ele>310.074</ele>
        <time>2016-10-27T16:32:15Z</time>
      </trkpt>
      <trkpt lat="43.40921" lon="0.00242">
        <ele>313.085</ele>
        <time>2016-10-27T16:32:35Z</time>
      </trkpt>
      <trkpt lat="43.40844" lon="0.00182">
        <ele>314.04</ele>
        <time>2016-10-27T16:32:55Z</time>
      </trkpt>
      <trkpt lat="43.40794" lon="0.00152">
        <ele>314.01</ele>
        <time>2016-10-27T16:33:15Z</time>
      </trkpt>
      <trkpt lat="43.40721" lon="0.00077">
        <ele>314.099</ele>
        <time>2016-10-27T16:33:35Z</time>
      </trkpt>
      <trkpt lat="43.40671" lon="0.00029">
        <ele>314.055</ele>
        <time>2016-10-27T16:33:55Z</time>
      </trkpt>
      <trkpt lat="43.40575" lon="-0.00093">
        <ele>316.061</ele>
        <time>2016-10-27T16:34:15Z</time>
      </trkpt>
      <trkpt lat="43.4047" lon="-0.00151">
        <ele>316.063</ele>
        <time>2016-10-27T16:34:35Z</time>
      </trkpt>
      <trkpt lat="43.40324" lon="-0.00147">
        <ele>318.044</ele>
        <time>2016-10-27T16:34:55Z</time>
      </trkpt>
      <trkpt lat="43.40186" lon="-0.00127">
        <ele>323.018</ele>
        <time>2016-10-27T16:35:15Z</time>
      </trkpt>
      <trkpt lat="43.40154" lon="-0.00153">
        <ele>320.008</ele>
        <time>2016-10-27T16:35:35Z</time>
      </trkpt>
      <trkpt lat="43.4011" lon="-0.00252">
        <ele>319.062</ele>
        <time>2016-10-27T16:35:55Z</time>
      </trkpt>
      <trkpt lat="43.40063" lon="-0.0025">
        <ele>319.061</ele>
        <time>2016-10-27T16:36:15Z</time>
      </trkpt>
      <trkpt lat="43.39938" lon="-0.00177">
        <ele>319.022</ele>
        <time>2016-10-27T16:36:35Z</time>
      </trkpt>
      <trkpt lat="43.39889" lon="-0.00194">
        <ele>318.027</ele>
        <time>2016-10-27T16:36:55Z</time>
      </trkpt>
      <trkpt lat="43.39817" lon="-0.00415">
        <ele>318.027</ele>
        <time>2016-10-27T16:37:15Z</time>
      </trkpt>
      <trkpt lat="43.39747" lon="-0.00275">
        <ele>307.026</ele>
        <time>2016-10-27T16:37:35Z</time>
      </trkpt>
      <trkpt lat="43.39703" lon="-0.00237">
        <ele>300.022</ele>
        <time>2016-10-27T16:37:55Z</time>
      </trkpt>
      <trkpt lat="43.39644" lon="-0.0008">
        <ele>282.098</ele>
        <time>2016-10-27T16:38:15Z</time>
      </trkpt>
      <trkpt lat="43.39617" lon="-0.00054">
        <ele>282.072</ele>
        <time>2016-10-27T16:38:35Z</time>
      </trkpt>
      <trkpt lat="43.39602" lon="0.00081">
        <ele>282.013</ele>
        <time>2016-10-27T16:38:55Z</time>
      </trkpt>
      <trkpt lat="43.39564" lon="0.00186">
        <ele>277.014</ele>
        <time>2016-10-27T16:39:15Z</time>
      </trkpt>
      <trkpt lat="43.39563" lon="0.00295">
        <ele>274.008</ele>
        <time>2016-10-27T16:39:35Z</time>
      </trkpt>
      <trkpt lat="43.39546" lon="0.00416">
        <ele>269.063</ele>
        <time>2016-10-27T16:39:55Z</time>
      </trkpt>
      <trkpt lat="43.39556" lon="0.00521">
        <ele>260.092</ele>
        <time>2016-10-27T16:40:15Z</time>
      </trkpt>
      <trkpt lat="43.39578" lon="0.00611">
        <ele>256.083</ele>
        <time>2016-10-27T16:40:35Z</time>
      </trkpt>
      <trkpt lat="43.396" lon="0.00823">
        <ele>258.028</ele>
        <time>2016-10-27T16:40:55Z</time>
      </trkpt>
      <trkpt lat="43.39588" lon="0.00896">
        <ele>253.068</ele>
        <time>2016-10-27T16:41:15Z</time>
      </trkpt>
      <trkpt lat="43.396" lon="0.01036">
        <ele>246.097</ele>
        <time>2016-10-27T16:41:35Z</time>
      </trkpt>
      <trkpt lat="43.39499" lon="0.01355">
        <ele>227.063</ele>
        <time>2016-10-27T16:41:55Z</time>
      </trkpt>
      <trkpt lat="43.39539" lon="0.01433">
        <ele>226.069</ele>
        <time>2016-10-27T16:42:15Z</time>
      </trkpt>
      <trkpt lat="43.39618" lon="0.01615">
        <ele>222.245</ele>
        <time>2021-02-12T15:52:23Z</time>
      </trkpt>
      <trkpt lat="43.39415" lon="0.02039">
        <ele>216.847</ele>
        <time>2021-02-12T15:52:43Z</time>
      </trkpt>
      <trkpt lat="43.3932" lon="0.02048">
        <ele>222.011</ele>
        <time>2021-02-12T15:53:03Z</time>
      </trkpt>
      <trkpt lat="43.39212" lon="0.02118">
        <ele>220.708</ele>
        <time>2021-02-12T15:53:23Z</time>
      </trkpt>
      <trkpt lat="43.39137" lon="0.02044">
        <ele>220.04</ele>
        <time>2016-10-27T16:44:15Z</time>
      </trkpt>
      <trkpt lat="43.39227" lon="0.02377">
        <ele>225.099</ele>
        <time>2016-10-27T16:44:35Z</time>
      </trkpt>
      <trkpt lat="43.39103" lon="0.02319">
        <ele>229.07</ele>
        <time>2016-10-27T16:44:55Z</time>
      </trkpt>
      <trkpt lat="43.3904" lon="0.02282">
        <ele>234.015</ele>
        <time>2016-10-27T16:45:15Z</time>
      </trkpt>
      <trkpt lat="43.38808" lon="0.02158">
        <ele>253.095</ele>
        <time>2016-10-27T16:45:35Z</time>
      </trkpt>
      <trkpt lat="43.38716" lon="0.02098">
        <ele>261.084</ele>
        <time>2016-10-27T16:45:55Z</time>
      </trkpt>
      <trkpt lat="43.38605" lon="0.02089">
        <ele>271.09</ele>
        <time>2016-10-27T16:46:15Z</time>
      </trkpt>
      <trkpt lat="43.38573" lon="0.02061">
        <ele>273.066</ele>
        <time>2016-10-27T16:46:35Z</time>
      </trkpt>
      <trkpt lat="43.38546" lon="0.02055">
        <ele>275.023</ele>
        <time>2016-10-27T16:46:55Z</time>
      </trkpt>
      <trkpt lat="43.38527" lon="0.02034">
        <ele>277.083</ele>
        <time>2016-10-27T16:47:15Z</time>
      </trkpt>
      <trkpt lat="43.38507" lon="0.01954">
        <ele>274.011</ele>
        <time>2016-10-27T16:47:35Z</time>
      </trkpt>
      <trkpt lat="43.38454" lon="0.01913">
        <ele>275.008</ele>
        <time>2016-10-27T16:47:55Z</time>
      </trkpt>
      <trkpt lat="43.38407" lon="0.01909">
        <ele>281.028</ele>
        <time>2016-10-27T16:48:15Z</time>
      </trkpt>
      <trkpt lat="43.38367" lon="0.01877">
        <ele>282.037</ele>
        <time>2016-10-27T16:48:35Z</time>
      </trkpt>
      <trkpt lat="43.3836" lon="0.01819">
        <ele>275.098</ele>
        <time>2016-10-27T16:48:55Z</time>
      </trkpt>
      <trkpt lat="43.38326" lon="0.01763">
        <ele>281.093</ele>
        <time>2016-10-27T16:49:15Z</time>
      </trkpt>
      <trkpt lat="43.38311" lon="0.01718">
        <ele>278.093</ele>
        <time>2016-10-27T16:49:35Z</time>
      </trkpt>
      <trkpt lat="43.38265" lon="0.01656">
        <ele>276.072</ele>
        <time>2016-10-27T16:49:55Z</time>
      </trkpt>
      <trkpt lat="43.382" lon="0.01604">
        <ele>281.048</ele>
        <time>2016-10-27T16:50:15Z</time>
      </trkpt>
      <trkpt lat="43.38102" lon="0.01557">
        <ele>280.044</ele>
        <time>2016-10-27T16:50:35Z</time>
      </trkpt>
      <trkpt lat="43.38055" lon="0.01508">
        <ele>284.071</ele>
        <time>2016-10-27T16:50:55Z</time>
      </trkpt>
      <trkpt lat="43.37997" lon="0.0148">
        <ele>284.041</ele>
        <time>2016-10-27T16:51:15Z</time>
      </trkpt>
      <trkpt lat="43.3796" lon="0.0148">
        <ele>284.015</ele>
        <time>2016-10-27T16:51:35Z</time>
      </trkpt>
      <trkpt lat="43.37897" lon="0.0145">
        <ele>287.008</ele>
        <time>2016-10-27T16:51:55Z</time>
      </trkpt>
      <trkpt lat="43.37838" lon="0.01448">
        <ele>288.043</ele>
        <time>2016-10-27T16:52:15Z</time>
      </trkpt>
      <trkpt lat="43.37772" lon="0.0142">
        <ele>292.072</ele>
        <time>2016-10-27T16:52:35Z</time>
      </trkpt>
      <trkpt lat="43.37707" lon="0.01379">
        <ele>286.093</ele>
        <time>2016-10-27T16:52:55Z</time>
      </trkpt>
      <trkpt lat="43.37668" lon="0.01478">
        <ele>298.048</ele>
        <time>2016-10-27T16:53:15Z</time>
      </trkpt>
      <trkpt lat="43.3762" lon="0.01624">
        <ele>311.058</ele>
        <time>2016-10-27T16:53:35Z</time>
      </trkpt>
      <trkpt lat="43.37585" lon="0.01671">
        <ele>311.057</ele>
        <time>2016-10-27T16:53:55Z</time>
      </trkpt>
      <trkpt lat="43.37578" lon="0.01832">
        <ele>299.073</ele>
        <time>2016-10-27T16:54:15Z</time>
      </trkpt>
      <trkpt lat="43.37539" lon="0.01933">
        <ele>285.089</ele>
        <time>2016-10-27T16:54:35Z</time>
      </trkpt>
      <trkpt lat="43.375" lon="0.01928">
        <ele>286.064</ele>
        <time>2016-10-27T16:54:55Z</time>
      </trkpt>
      <trkpt lat="43.37443" lon="0.01907">
        <ele>293.006</ele>
        <time>2016-10-27T16:55:15Z</time>
      </trkpt>
      <trkpt lat="43.37334" lon="0.01913">
        <ele>289.016</ele>
        <time>2016-10-27T16:55:35Z</time>
      </trkpt>
      <trkpt lat="43.37266" lon="0.0189">
        <ele>289.008</ele>
        <time>2016-10-27T16:55:55Z</time>
      </trkpt>
      <trkpt lat="43.37227" lon="0.01821">
        <ele>292.082</ele>
        <time>2016-10-27T16:56:15Z</time>
      </trkpt>
      <trkpt lat="43.37013" lon="0.01652">
        <ele>297.021</ele>
        <time>2016-10-27T16:56:35Z</time>
      </trkpt>
      <trkpt lat="43.36966" lon="0.01671">
        <ele>287.012</ele>
        <time>2016-10-27T16:56:55Z</time>
      </trkpt>
      <trkpt lat="43.36936" lon="0.01725">
        <ele>284.067</ele>
        <time>2016-10-27T16:57:15Z</time>
      </trkpt>
      <trkpt lat="43.36922" lon="0.01679">
        <ele>287.087</ele>
        <time>2016-10-27T16:57:35Z</time>
      </trkpt>
      <trkpt lat="43.3691" lon="0.01703">
        <ele>282.036</ele>
        <time>2016-10-27T16:57:55Z</time>
      </trkpt>
      <trkpt lat="43.36924" lon="0.01787">
        <ele>277.052</ele>
        <time>2016-10-27T16:58:15Z</time>
      </trkpt>
      <trkpt lat="43.36901" lon="0.01935">
        <ele>269.018</ele>
        <time>2016-10-27T16:58:35Z</time>
      </trkpt>
      <trkpt lat="43.36912" lon="0.02044">
        <ele>268.045</ele>
        <time>2016-10-27T16:58:55Z</time>
      </trkpt>
      <trkpt lat="43.36924" lon="0.02169">
        <ele>267.047</ele>
        <time>2016-10-27T16:59:15Z</time>
      </trkpt>
      <trkpt lat="43.3694" lon="0.02212">
        <ele>267.011</ele>
        <time>2016-10-27T16:59:35Z</time>
      </trkpt>
      <trkpt lat="43.36974" lon="0.02218">
        <ele>264.008</ele>
        <time>2016-10-27T16:59:55Z</time>
      </trkpt>
      <trkpt lat="43.36985" lon="0.02255">
        <ele>266.05</ele>
        <time>2016-10-27T17:00:15Z</time>
      </trkpt>
      <trkpt lat="43.36983" lon="0.0233">
        <ele>266.069</ele>
        <time>2016-10-27T17:00:35Z</time>
      </trkpt>
      <trkpt lat="43.36954" lon="0.02413">
        <ele>275.01</ele>
        <time>2016-10-27T17:00:55Z</time>
      </trkpt>
      <trkpt lat="43.36963" lon="0.02458">
        <ele>279.055</ele>
        <time>2016-10-27T17:01:15Z</time>
      </trkpt>
      <trkpt lat="43.36971" lon="0.02531">
        <ele>286.075</ele>
        <time>2016-10-27T17:01:35Z</time>
      </trkpt>
      <trkpt lat="43.37018" lon="0.02557">
        <ele>277.084</ele>
        <time>2016-10-27T17:01:55Z</time>
      </trkpt>
      <trkpt lat="43.37043" lon="0.02615">
        <ele>282.07</ele>
        <time>2016-10-27T17:02:15Z</time>
      </trkpt>
      <trkpt lat="43.37072" lon="0.02643">
        <ele>281.046</ele>
        <time>2016-10-27T17:02:35Z</time>
      </trkpt>
      <trkpt lat="43.37089" lon="0.02692">
        <ele>279.065</ele>
        <time>2016-10-27T17:02:55Z</time>
      </trkpt>
      <trkpt lat="43.3708" lon="0.02727">
        <ele>281.068</ele>
        <time>2016-10-27T17:03:15Z</time>
      </trkpt>
      <trkpt lat="43.37127" lon="0.02755">
        <ele>280.814</ele>
        <time>2021-02-12T16:13:03Z</time>
      </trkpt>
      <trkpt lat="43.37147" lon="0.02773">
        <ele>280.808</ele>
        <time>2021-02-12T16:13:23Z</time>
      </trkpt>
      <trkpt lat="43.37153" lon="0.02768">
        <ele>281.242</ele>
        <time>2021-02-12T16:13:43Z</time>
      </trkpt>
      <trkpt lat="43.37206" lon="0.0278">
        <ele>282.051</ele>
        <time>2016-10-27T17:03:55Z</time>
      </trkpt>
      <trkpt lat="43.37253" lon="0.02776">
        <ele>282.122</ele>
        <time>2021-02-12T16:14:23Z</time>
      </trkpt>
      <trkpt lat="43.37255" lon="0.028">
        <ele>283.037</ele>
        <time>2016-10-27T17:04:35Z</time>
      </trkpt>
      <trkpt lat="43.37239" lon="0.02849">
        <ele>285.067</ele>
        <time>2016-10-27T17:04:55Z</time>
      </trkpt>
      <trkpt lat="43.37244" lon="0.02863">
        <ele>286.056</ele>
        <time>2021-02-12T16:15:23Z</time>
      </trkpt>
      <trkpt lat="43.37235" lon="0.02869">
        <ele>285.032</ele>
        <time>2021-02-12T16:15:43Z</time>
      </trkpt>
      <trkpt lat="43.3724" lon="0.0292">
        <ele>284.218</ele>
        <time>2021-02-12T16:16:03Z</time>
      </trkpt>
      <trkpt lat="43.37252" lon="0.02962">
        <ele>281.148</ele>
        <time>2021-02-12T16:16:23Z</time>
      </trkpt>
      <trkpt lat="43.37206" lon="0.02978">
        <ele>274.061</ele>
        <time>2016-10-27T17:05:55Z</time>
      </trkpt>
      <trkpt lat="43.3722" lon="0.03061">
        <ele>265.017</ele>
        <time>2016-10-27T17:06:15Z</time>
      </trkpt>
      <trkpt lat="43.37203" lon="0.03085">
        <ele>255.008</ele>
        <time>2016-10-27T17:06:35Z</time>
      </trkpt>
      <trkpt lat="43.37014" lon="0.03076">
        <ele>246.06</ele>
        <time>2016-10-27T17:06:55Z</time>
      </trkpt>
      <trkpt lat="43.36965" lon="0.03147">
        <ele>240.059</ele>
        <time>2016-10-27T17:07:15Z</time>
      </trkpt>
      <trkpt lat="43.36855" lon="0.03194">
        <ele>235.05</ele>
        <time>2016-10-27T17:07:35Z</time>
      </trkpt>
      <trkpt lat="43.36763" lon="0.03184">
        <ele>235.045</ele>
        <time>2016-10-27T17:07:55Z</time>
      </trkpt>
      <trkpt lat="43.36741" lon="0.03229">
        <ele>233.065</ele>
        <time>2016-10-27T17:08:15Z</time>
      </trkpt>
      <trkpt lat="43.36464" lon="0.03227">
        <ele>235.094</ele>
        <time>2016-10-27T17:08:35Z</time>
      </trkpt>
      <trkpt lat="43.36461" lon="0.03259">
        <ele>234.02</ele>
        <time>2016-10-27T17:08:55Z</time>
      </trkpt>
      <trkpt lat="43.36361" lon="0.0337">
        <ele>234.076</ele>
        <time>2016-10-27T17:09:15Z</time>
      </trkpt>
      <trkpt lat="43.36344" lon="0.034">
        <ele>233.076</ele>
        <time>2016-10-27T17:09:35Z</time>
      </trkpt>
      <trkpt lat="43.36177" lon="0.03488">
        <ele>234.09</ele>
        <time>2016-10-27T17:09:55Z</time>
      </trkpt>
      <trkpt lat="43.35985" lon="0.03501">
        <ele>234.019</ele>
        <time>2016-10-27T17:10:15Z</time>
      </trkpt>
      <trkpt lat="43.35837" lon="0.03536">
        <ele>234.008</ele>
        <time>2016-10-27T17:10:35Z</time>
      </trkpt>
      <trkpt lat="43.3576" lon="0.0351">
        <ele>237.063</ele>
        <time>2016-10-27T17:10:55Z</time>
      </trkpt>
      <trkpt lat="43.35706" lon="0.03536">
        <ele>244.012</ele>
        <time>2016-10-27T17:11:15Z</time>
      </trkpt>
      <trkpt lat="43.35688" lon="0.03561">
        <ele>247.023</ele>
        <time>2016-10-27T17:11:35Z</time>
      </trkpt>
      <trkpt lat="43.35603" lon="0.03568">
        <ele>258.078</ele>
        <time>2016-10-27T17:11:55Z</time>
      </trkpt>
      <trkpt lat="43.35476" lon="0.03527">
        <ele>279.078</ele>
        <time>2016-10-27T17:12:15Z</time>
      </trkpt>
      <trkpt lat="43.35364" lon="0.03533">
        <ele>285.097</ele>
        <time>2016-10-27T17:12:35Z</time>
      </trkpt>
      <trkpt lat="43.35286" lon="0.03501">
        <ele>294.043</ele>
        <time>2016-10-27T17:12:55Z</time>
      </trkpt>
      <trkpt lat="43.35169" lon="0.03437">
        <ele>301.069</ele>
        <time>2016-10-27T17:13:15Z</time>
      </trkpt>
      <trkpt lat="43.35106" lon="0.03439">
        <ele>303.092</ele>
        <time>2016-10-27T17:13:35Z</time>
      </trkpt>
      <trkpt lat="43.35036" lon="0.03394">
        <ele>306.073</ele>
        <time>2016-10-27T17:13:55Z</time>
      </trkpt>
      <trkpt lat="43.34969" lon="0.03325">
        <ele>308.02</ele>
        <time>2016-10-27T17:14:15Z</time>
      </trkpt>
      <trkpt lat="43.3489" lon="0.03197">
        <ele>308.008</ele>
        <time>2016-10-27T17:14:35Z</time>
      </trkpt>
      <trkpt lat="43.34813" lon="0.03151">
        <ele>306.035</ele>
        <time>2016-10-27T17:14:55Z</time>
      </trkpt>
      <trkpt lat="43.34712" lon="0.03106">
        <ele>307.044</ele>
        <time>2016-10-27T17:15:15Z</time>
      </trkpt>
      <trkpt lat="43.34621" lon="0.02988">
        <ele>321.025</ele>
        <time>2016-10-27T17:15:35Z</time>
      </trkpt>
      <trkpt lat="43.3457" lon="0.02982">
        <ele>325.09</ele>
        <time>2016-10-27T17:15:55Z</time>
      </trkpt>
      <trkpt lat="43.34457" lon="0.02892">
        <ele>331.01</ele>
        <time>2016-10-27T17:16:15Z</time>
      </trkpt>
      <trkpt lat="43.34428" lon="0.02903">
        <ele>331.089</ele>
        <time>2016-10-27T17:16:35Z</time>
      </trkpt>
      <trkpt lat="43.34362" lon="0.02866">
        <ele>334.015</ele>
        <time>2016-10-27T17:16:55Z</time>
      </trkpt>
      <trkpt lat="43.34317" lon="0.02834">
        <ele>336.011</ele>
        <time>2016-10-27T17:17:15Z</time>
      </trkpt>
      <trkpt lat="43.34255" lon="0.02785">
        <ele>338.097</ele>
        <time>2016-10-27T17:17:35Z</time>
      </trkpt>
      <trkpt lat="43.34215" lon="0.02735">
        <ele>340.023</ele>
        <time>2016-10-27T17:17:55Z</time>
      </trkpt>
      <trkpt lat="43.34139" lon="0.02679">
        <ele>342.025</ele>
        <time>2016-10-27T17:18:15Z</time>
      </trkpt>
      <trkpt lat="43.34106" lon="0.02641">
        <ele>342.008</ele>
        <time>2016-10-27T17:18:35Z</time>
      </trkpt>
      <trkpt lat="43.34055" lon="0.02596">
        <ele>343.015</ele>
        <time>2016-10-27T17:18:55Z</time>
      </trkpt>
      <trkpt lat="43.34027" lon="0.0254">
        <ele>342.094</ele>
        <time>2016-10-27T17:19:15Z</time>
      </trkpt>
      <trkpt lat="43.33858" lon="0.02403">
        <ele>343.095</ele>
        <time>2016-10-27T17:19:35Z</time>
      </trkpt>
      <trkpt lat="43.33727" lon="0.02171">
        <ele>341.02</ele>
        <time>2016-10-27T17:19:55Z</time>
      </trkpt>
      <trkpt lat="43.33215" lon="0.01617">
        <ele>339.029</ele>
        <time>2016-10-27T17:20:35Z</time>
      </trkpt>
      <trkpt lat="43.33203" lon="0.01645">
        <ele>340.035</ele>
        <time>2016-10-27T17:20:55Z</time>
      </trkpt>
      <trkpt lat="43.33173" lon="0.016">
        <ele>340.041</ele>
        <time>2016-10-27T17:21:15Z</time>
      </trkpt>
      <trkpt lat="43.33115" lon="0.01555">
        <ele>342.079</ele>
        <time>2016-10-27T17:21:35Z</time>
      </trkpt>
      <trkpt lat="43.33089" lon="0.01508">
        <ele>343.005</ele>
        <time>2016-10-27T17:21:55Z</time>
      </trkpt>
      <trkpt lat="43.33053" lon="0.01488">
        <ele>343.025</ele>
        <time>2016-10-27T17:22:15Z</time>
      </trkpt>
      <trkpt lat="43.33028" lon="0.01452">
        <ele>342.008</ele>
        <time>2016-10-27T17:22:35Z</time>
      </trkpt>
      <trkpt lat="43.32783" lon="0.01283">
        <ele>343.023</ele>
        <time>2016-10-27T17:22:55Z</time>
      </trkpt>
      <trkpt lat="43.32511" lon="0.00989">
        <ele>339.052</ele>
        <time>2016-10-27T17:23:15Z</time>
      </trkpt>
      <trkpt lat="43.32514" lon="0.00911">
        <ele>338.043</ele>
        <time>2016-10-27T17:23:35Z</time>
      </trkpt>
      <trkpt lat="43.32375" lon="0.00658">
        <ele>344.078</ele>
        <time>2016-10-27T17:23:55Z</time>
      </trkpt>
      <trkpt lat="43.3235" lon="0.00654">
        <ele>346.038</ele>
        <time>2016-10-27T17:24:15Z</time>
      </trkpt>
      <trkpt lat="43.32219" lon="0.00574">
        <ele>350.017</ele>
        <time>2016-10-27T17:24:35Z</time>
      </trkpt>
      <trkpt lat="43.31937" lon="0.00566">
        <ele>353.053</ele>
        <time>2016-10-27T17:24:55Z</time>
      </trkpt>
      <trkpt lat="43.31835" lon="0.00506">
        <ele>355.089</ele>
        <time>2016-10-27T17:25:15Z</time>
      </trkpt>
      <trkpt lat="43.31684" lon="0.00334">
        <ele>353.075</ele>
        <time>2016-10-27T17:25:35Z</time>
      </trkpt>
      <trkpt lat="43.31648" lon="0.00268">
        <ele>353.028</ele>
        <time>2016-10-27T17:25:55Z</time>
      </trkpt>
      <trkpt lat="43.31573" lon="0.00137">
        <ele>350.02</ele>
        <time>2016-10-27T17:26:15Z</time>
      </trkpt>
      <trkpt lat="43.31542" lon="6.0E-5">
        <ele>349.008</ele>
        <time>2016-10-27T17:26:35Z</time>
      </trkpt>
      <trkpt lat="43.31534" lon="0.00019">
        <ele>349.053</ele>
        <time>2016-10-27T17:26:55Z</time>
      </trkpt>
      <trkpt lat="43.31534" lon="0.00064">
        <ele>349.062</ele>
        <time>2016-10-27T17:27:15Z</time>
      </trkpt>
      <trkpt lat="43.31514" lon="0.00119">
        <ele>349.073</ele>
        <time>2016-10-27T17:27:35Z</time>
      </trkpt>
      <trkpt lat="43.31478" lon="0.00154">
        <ele>343.018</ele>
        <time>2016-10-27T17:27:55Z</time>
      </trkpt>
      <trkpt lat="43.31471" lon="0.00205">
        <ele>342.038</ele>
        <time>2016-10-27T17:28:15Z</time>
      </trkpt>
      <trkpt lat="43.31421" lon="0.00248">
        <ele>333.057</ele>
        <time>2016-10-27T17:28:35Z</time>
      </trkpt>
      <trkpt lat="43.3139" lon="0.0033">
        <ele>322.043</ele>
        <time>2016-10-27T17:28:55Z</time>
      </trkpt>
      <trkpt lat="43.3139" lon="0.00495">
        <ele>308.079</ele>
        <time>2016-10-27T17:29:15Z</time>
      </trkpt>
      <trkpt lat="43.31328" lon="0.0057">
        <ele>293.032</ele>
        <time>2016-10-27T17:29:35Z</time>
      </trkpt>
      <trkpt lat="43.31287" lon="0.00671">
        <ele>282.092</ele>
        <time>2016-10-27T17:29:55Z</time>
      </trkpt>
      <trkpt lat="43.31254" lon="0.00637">
        <ele>285.011</ele>
        <time>2016-10-27T17:30:15Z</time>
      </trkpt>
      <trkpt lat="43.31184" lon="0.00547">
        <ele>285.008</ele>
        <time>2016-10-27T17:30:35Z</time>
      </trkpt>
      <trkpt lat="43.31119" lon="0.00486">
        <ele>284.069</ele>
        <time>2016-10-27T17:30:55Z</time>
      </trkpt>
      <trkpt lat="43.31097" lon="0.00448">
        <ele>285.058</ele>
        <time>2016-10-27T17:31:15Z</time>
      </trkpt>
      <trkpt lat="43.31009" lon="0.00405">
        <ele>285.069</ele>
        <time>2016-10-27T17:31:35Z</time>
      </trkpt>
      <trkpt lat="43.30952" lon="0.00366">
        <ele>282.084</ele>
        <time>2016-10-27T17:31:55Z</time>
      </trkpt>
      <trkpt lat="43.30895" lon="0.00293">
        <ele>283.034</ele>
        <time>2016-10-27T17:32:15Z</time>
      </trkpt>
      <trkpt lat="43.30864" lon="0.00259">
        <ele>283.093</ele>
        <time>2016-10-27T17:32:35Z</time>
      </trkpt>
      <trkpt lat="43.30805" lon="0.00165">
        <ele>288.099</ele>
        <time>2016-10-27T17:32:55Z</time>
      </trkpt>
      <trkpt lat="43.30747" lon="0.00119">
        <ele>288.035</ele>
        <time>2016-10-27T17:33:15Z</time>
      </trkpt>
      <trkpt lat="43.30628" lon="0.00038">
        <ele>292.097</ele>
        <time>2016-10-27T17:33:35Z</time>
      </trkpt>
      <trkpt lat="43.30577" lon="-9.0E-5">
        <ele>295.023</ele>
        <time>2016-10-27T17:33:55Z</time>
      </trkpt>
      <trkpt lat="43.30555" lon="-0.00048">
        <ele>299.025</ele>
        <time>2016-10-27T17:34:15Z</time>
      </trkpt>
      <trkpt lat="43.30517" lon="-0.00067">
        <ele>298.008</ele>
        <time>2016-10-27T17:34:35Z</time>
      </trkpt>
      <trkpt lat="43.30535" lon="-0.00145">
        <ele>308.095</ele>
        <time>2016-10-27T17:34:55Z</time>
      </trkpt>
      <trkpt lat="43.30508" lon="-0.00145">
        <ele>307.064</ele>
        <time>2016-10-27T17:35:15Z</time>
      </trkpt>
      <trkpt lat="43.30477" lon="-0.00153">
        <ele>304.015</ele>
        <time>2016-10-27T17:35:35Z</time>
      </trkpt>
      <trkpt lat="43.30321" lon="0.00212">
        <ele>286.03</ele>
        <time>2016-10-27T17:35:55Z</time>
      </trkpt>
      <trkpt lat="43.3028" lon="0.0021">
        <ele>286.02</ele>
        <time>2016-10-27T17:36:15Z</time>
      </trkpt>
      <trkpt lat="43.30249" lon="0.00235">
        <ele>286.089</ele>
        <time>2016-10-27T17:36:35Z</time>
      </trkpt>
      <trkpt lat="43.30216" lon="0.00409">
        <ele>287.045</ele>
        <time>2016-10-27T17:36:55Z</time>
      </trkpt>
      <trkpt lat="43.3016" lon="0.00396">
        <ele>285.021</ele>
        <time>2016-10-27T17:37:15Z</time>
      </trkpt>
      <trkpt lat="43.30133" lon="0.00401">
        <ele>285.044</ele>
        <time>2016-10-27T17:37:35Z</time>
      </trkpt>
      <trkpt lat="43.30043" lon="0.00336">
        <ele>285.005</ele>
        <time>2016-10-27T17:37:55Z</time>
      </trkpt>
      <trkpt lat="43.30029" lon="0.00345">
        <ele>286.015</ele>
        <time>2016-10-27T17:38:15Z</time>
      </trkpt>
      <trkpt lat="43.30019" lon="0.00403">
        <ele>286.008</ele>
        <time>2016-10-27T17:38:35Z</time>
      </trkpt>
      <trkpt lat="43.29988" lon="0.00486">
        <ele>287.04</ele>
        <time>2016-10-27T17:38:55Z</time>
      </trkpt>
      <trkpt lat="43.29962" lon="0.00587">
        <ele>301.059</ele>
        <time>2016-10-27T17:39:15Z</time>
      </trkpt>
      <trkpt lat="43.2989" lon="0.00619">
        <ele>314.04</ele>
        <time>2016-10-27T17:39:35Z</time>
      </trkpt>
      <trkpt lat="43.29827" lon="0.00568">
        <ele>308.085</ele>
        <time>2016-10-27T17:39:55Z</time>
      </trkpt>
      <trkpt lat="43.29791" lon="0.00553">
        <ele>305.085</ele>
        <time>2016-10-27T17:40:15Z</time>
      </trkpt>
      <trkpt lat="43.29715" lon="0.00544">
        <ele>305.054</ele>
        <time>2016-10-27T17:40:35Z</time>
      </trkpt>
      <trkpt lat="43.29699" lon="0.0057">
        <ele>306.07</ele>
        <time>2016-10-27T17:40:55Z</time>
      </trkpt>
      <trkpt lat="43.29699" lon="0.00596">
        <ele>315.086</ele>
        <time>2016-10-27T17:41:15Z</time>
      </trkpt>
      <trkpt lat="43.29676" lon="0.00604">
        <ele>314.059</ele>
        <time>2016-10-27T17:41:35Z</time>
      </trkpt>
      <trkpt lat="43.29521" lon="0.0054">
        <ele>311.003</ele>
        <time>2016-10-27T17:41:55Z</time>
      </trkpt>
      <trkpt lat="43.2951" lon="0.00557">
        <ele>314.023</ele>
        <time>2016-10-27T17:42:15Z</time>
      </trkpt>
      <trkpt lat="43.29426" lon="0.00551">
        <ele>317.008</ele>
        <time>2016-10-27T17:42:35Z</time>
      </trkpt>
      <trkpt lat="43.29421" lon="0.00566">
        <ele>319.091</ele>
        <time>2016-10-27T17:42:55Z</time>
      </trkpt>
      <trkpt lat="43.29384" lon="0.00602">
        <ele>327.03</ele>
        <time>2016-10-27T17:43:15Z</time>
      </trkpt>
      <trkpt lat="43.29337" lon="0.0063">
        <ele>328.051</ele>
        <time>2016-10-27T17:43:35Z</time>
      </trkpt>
      <trkpt lat="43.29309" lon="0.00692">
        <ele>337.086</ele>
        <time>2016-10-27T17:43:55Z</time>
      </trkpt>
      <trkpt lat="43.29304" lon="0.00783">
        <ele>347.026</ele>
        <time>2016-10-27T17:44:15Z</time>
      </trkpt>
      <trkpt lat="43.29295" lon="0.00836">
        <ele>353.075</ele>
        <time>2016-10-27T17:44:35Z</time>
      </trkpt>
      <trkpt lat="43.29301" lon="0.00886">
        <ele>355.091</ele>
        <time>2016-10-27T17:44:55Z</time>
      </trkpt>
      <trkpt lat="43.29273" lon="0.01008">
        <ele>360.047</ele>
        <time>2016-10-27T17:45:15Z</time>
      </trkpt>
      <trkpt lat="43.29254" lon="0.0104">
        <ele>361.059</ele>
        <time>2016-10-27T17:45:35Z</time>
      </trkpt>
      <trkpt lat="43.29106" lon="0.00993">
        <ele>373.003</ele>
        <time>2016-10-27T17:45:55Z</time>
      </trkpt>
      <trkpt lat="43.29018" lon="0.00896">
        <ele>376.023</ele>
        <time>2016-10-27T17:46:15Z</time>
      </trkpt>
      <trkpt lat="43.28946" lon="0.00834">
        <ele>374.008</ele>
        <time>2016-10-27T17:46:35Z</time>
      </trkpt>
      <trkpt lat="43.28893" lon="0.00791">
        <ele>375.031</ele>
        <time>2016-10-27T17:46:55Z</time>
      </trkpt>
      <trkpt lat="43.2875" lon="0.0075">
        <ele>372.02</ele>
        <time>2016-10-27T17:47:15Z</time>
      </trkpt>
      <trkpt lat="43.28542" lon="0.0068">
        <ele>376.031</ele>
        <time>2016-10-27T17:47:35Z</time>
      </trkpt>
      <trkpt lat="43.28512" lon="0.00695">
        <ele>375.016</ele>
        <time>2016-10-27T17:47:55Z</time>
      </trkpt>
      <trkpt lat="43.28475" lon="0.00727">
        <ele>376.046</ele>
        <time>2016-10-27T17:48:15Z</time>
      </trkpt>
      <trkpt lat="43.28407" lon="0.00703">
        <ele>379.025</ele>
        <time>2016-10-27T17:48:35Z</time>
      </trkpt>
      <trkpt lat="43.28286" lon="0.00572">
        <ele>379.061</ele>
        <time>2016-10-27T17:48:55Z</time>
      </trkpt>
      <trkpt lat="43.28211" lon="0.00553">
        <ele>378.097</ele>
        <time>2016-10-27T17:49:15Z</time>
      </trkpt>
      <trkpt lat="43.28156" lon="0.00491">
        <ele>375.049</ele>
        <time>2016-10-27T17:49:35Z</time>
      </trkpt>
      <trkpt lat="43.28179" lon="0.0042">
        <ele>375.002</ele>
        <time>2016-10-27T17:49:55Z</time>
      </trkpt>
      <trkpt lat="43.28106" lon="0.00459">
        <ele>374.022</ele>
        <time>2016-10-27T17:50:15Z</time>
      </trkpt>
      <trkpt lat="43.28048" lon="0.00465">
        <ele>375.008</ele>
        <time>2016-10-27T17:50:35Z</time>
      </trkpt>
      <trkpt lat="43.27975" lon="0.00547">
        <ele>383.09</ele>
        <time>2016-10-27T17:50:55Z</time>
      </trkpt>
      <trkpt lat="43.27078" lon="0.0016">
        <ele>383.079</ele>
        <time>2016-10-27T17:51:15Z</time>
      </trkpt>
      <trkpt lat="43.27109" lon="0.00077">
        <ele>377.07</ele>
        <time>2016-10-27T17:51:35Z</time>
      </trkpt>
      <trkpt lat="43.27078" lon="0.00021">
        <ele>376.045</ele>
        <time>2016-10-27T17:51:55Z</time>
      </trkpt>
      <trkpt lat="43.27009" lon="-0.00061">
        <ele>375.025</ele>
        <time>2016-10-27T17:52:15Z</time>
      </trkpt>
      <trkpt lat="43.26973" lon="-0.00069">
        <ele>377.064</ele>
        <time>2016-10-27T17:52:35Z</time>
      </trkpt>
      <trkpt lat="43.26919" lon="-0.00097">
        <ele>374.06</ele>
        <time>2016-10-27T17:52:55Z</time>
      </trkpt>
      <trkpt lat="43.26844" lon="-0.0013">
        <ele>371.066</ele>
        <time>2016-10-27T17:53:15Z</time>
      </trkpt>
      <trkpt lat="43.26819" lon="-0.00157">
        <ele>368.066</ele>
        <time>2016-10-27T17:53:35Z</time>
      </trkpt>
      <trkpt lat="43.26726" lon="-0.00228">
        <ele>364.029</ele>
        <time>2016-10-27T17:53:55Z</time>
      </trkpt>
      <trkpt lat="43.26616" lon="-0.00363">
        <ele>373.021</ele>
        <time>2016-10-27T17:54:15Z</time>
      </trkpt>
      <trkpt lat="43.26581" lon="-0.00451">
        <ele>373.008</ele>
        <time>2016-10-27T17:54:35Z</time>
      </trkpt>
      <trkpt lat="43.2653" lon="-0.00531">
        <ele>377.092</ele>
        <time>2016-10-27T17:54:55Z</time>
      </trkpt>
      <trkpt lat="43.26442" lon="-0.0067">
        <ele>386.061</ele>
        <time>2016-10-27T17:55:15Z</time>
      </trkpt>
      <trkpt lat="43.26348" lon="-0.00805">
        <ele>390.052</ele>
        <time>2016-10-27T17:55:35Z</time>
      </trkpt>
      <trkpt lat="43.26242" lon="-0.00986">
        <ele>389.057</ele>
        <time>2016-10-27T17:55:55Z</time>
      </trkpt>
      <trkpt lat="43.26159" lon="-0.01138">
        <ele>393.127</ele>
        <time>2021-02-12T17:07:03Z</time>
      </trkpt>
      <trkpt lat="43.26085" lon="-0.00979">
        <ele>362.616</ele>
        <time>2021-02-12T17:07:23Z</time>
      </trkpt>
      <trkpt lat="43.26103" lon="-0.00923">
        <ele>358.762</ele>
        <time>2021-02-12T17:07:43Z</time>
      </trkpt>
      <trkpt lat="43.26095" lon="-0.00854">
        <ele>349.588</ele>
        <time>2021-02-12T17:08:03Z</time>
      </trkpt>
      <trkpt lat="43.26117" lon="-0.00813">
        <ele>348.714</ele>
        <time>2021-02-12T17:08:23Z</time>
      </trkpt>
      <trkpt lat="43.26124" lon="-0.00761">
        <ele>343.754</ele>
        <time>2021-02-12T17:08:43Z</time>
      </trkpt>
      <trkpt lat="43.26106" lon="-0.00658">
        <ele>330.309</ele>
        <time>2021-02-12T17:09:03Z</time>
      </trkpt>
      <trkpt lat="43.26078" lon="-0.00595">
        <ele>320.008</ele>
        <time>2021-02-12T17:09:23Z</time>
      </trkpt>
      <trkpt lat="43.26079" lon="-0.00578">
        <ele>318.337</ele>
        <time>2021-02-12T17:09:43Z</time>
      </trkpt>
      <trkpt lat="43.2606" lon="-0.00553">
        <ele>315.036</ele>
        <time>2021-02-12T17:10:03Z</time>
      </trkpt>
      <trkpt lat="43.25863" lon="-0.00534">
        <ele>308.127</ele>
        <time>2021-02-12T17:10:23Z</time>
      </trkpt>
      <trkpt lat="43.25846" lon="-0.00467">
        <ele>306.892</ele>
        <time>2021-02-12T17:10:43Z</time>
      </trkpt>
      <trkpt lat="43.25775" lon="-0.00404">
        <ele>304.362</ele>
        <time>2021-02-12T17:11:03Z</time>
      </trkpt>
      <trkpt lat="43.25683" lon="-0.00352">
        <ele>309.031</ele>
        <time>2021-02-12T17:11:23Z</time>
      </trkpt>
      <trkpt lat="43.25652" lon="-0.00314">
        <ele>310.787</ele>
        <time>2021-02-12T17:11:43Z</time>
      </trkpt>
      <trkpt lat="43.25587" lon="-0.00147">
        <ele>308.153</ele>
        <time>2021-02-12T17:12:03Z</time>
      </trkpt>
      <trkpt lat="43.25467" lon="-0.0005">
        <ele>309.643</ele>
        <time>2021-02-12T17:12:23Z</time>
      </trkpt>
      <trkpt lat="43.25141" lon="-0.00158">
        <ele>313.064</ele>
        <time>2021-02-12T17:12:43Z</time>
      </trkpt>
      <trkpt lat="43.25123" lon="-0.00208">
        <ele>313.01</ele>
        <time>2021-02-12T17:13:03Z</time>
      </trkpt>
      <trkpt lat="43.25084" lon="-0.00225">
        <ele>314.008</ele>
        <time>2021-02-12T17:13:23Z</time>
      </trkpt>
      <trkpt lat="43.25054" lon="-0.00284">
        <ele>314.03</ele>
        <time>2021-02-12T17:13:43Z</time>
      </trkpt>
      <trkpt lat="43.24269" lon="-0.00386">
        <ele>314.619</ele>
        <time>2021-02-12T17:14:03Z</time>
      </trkpt>
      <trkpt lat="43.24017" lon="-0.00407">
        <ele>316.72</ele>
        <time>2021-02-12T17:14:23Z</time>
      </trkpt>
      <trkpt lat="43.23991" lon="-0.00428">
        <ele>316.885</ele>
        <time>2021-02-12T17:14:43Z</time>
      </trkpt>
      <trkpt lat="43.23916" lon="-0.00284">
        <ele>316.235</ele>
        <time>2021-02-12T17:15:03Z</time>
      </trkpt>
      <trkpt lat="43.2389" lon="-0.00212">
        <ele>316.424</ele>
        <time>2021-02-12T17:15:23Z</time>
      </trkpt>
      <trkpt lat="43.23868" lon="-0.00188">
        <ele>316.19</ele>
        <time>2021-02-12T17:15:43Z</time>
      </trkpt>
      <trkpt lat="43.23822" lon="-0.00167">
        <ele>316.116</ele>
        <time>2021-02-12T17:16:03Z</time>
      </trkpt>
      <trkpt lat="43.23824" lon="-0.00097">
        <ele>315.482</ele>
        <time>2021-02-12T17:16:23Z</time>
      </trkpt>
      <trkpt lat="43.23813" lon="-0.00069">
        <ele>315.443</ele>
        <time>2021-02-12T17:16:43Z</time>
      </trkpt>
      <trkpt lat="43.23787" lon="-0.00053">
        <ele>316.217</ele>
        <time>2021-02-12T17:17:03Z</time>
      </trkpt>
      <trkpt lat="43.23761" lon="7.0E-5">
        <ele>317.408</ele>
        <time>2021-02-12T17:17:23Z</time>
      </trkpt>
      <trkpt lat="43.23702" lon="0.00189">
        <ele>320.114</ele>
        <time>2021-02-12T17:17:43Z</time>
      </trkpt>
      <trkpt lat="43.23556" lon="0.00202">
        <ele>319.523</ele>
        <time>2021-02-12T17:18:03Z</time>
      </trkpt>
      <trkpt lat="43.2347" lon="0.00194">
        <ele>319.834</ele>
        <time>2021-02-12T17:18:23Z</time>
      </trkpt>
      <trkpt lat="43.23403" lon="0.00171">
        <ele>320.389</ele>
        <time>2021-02-12T17:18:43Z</time>
      </trkpt>
      <trkpt lat="43.23392" lon="0.00151">
        <ele>320.699</ele>
        <time>2021-02-12T17:19:03Z</time>
      </trkpt>
      <trkpt lat="43.23357" lon="0.00135">
        <ele>321.098</ele>
        <time>2016-10-27T18:15:55Z</time>
      </trkpt>
      <trkpt lat="43.23252" lon="0.0008">
        <ele>322.024</ele>
        <time>2016-10-27T18:16:15Z</time>
      </trkpt>
      <trkpt lat="43.23178" lon="0.0006">
        <ele>321.094</ele>
        <time>2016-10-27T18:16:55Z</time>
      </trkpt>
      <trkpt lat="43.23103" lon="0.00017">
        <ele>321.057</ele>
        <time>2016-10-27T18:17:15Z</time>
      </trkpt>
      <trkpt lat="43.231" lon="-0.00079">
        <ele>322.022</ele>
        <time>2016-10-27T18:17:35Z</time>
      </trkpt>
      <trkpt lat="43.23057" lon="-0.00114">
        <ele>323.008</ele>
        <time>2016-10-27T18:17:55Z</time>
      </trkpt>
      <trkpt lat="43.23013" lon="-0.00131">
        <ele>323.095</ele>
        <time>2016-10-27T18:18:15Z</time>
      </trkpt>
      <trkpt lat="43.22949" lon="-0.00184">
        <ele>324.034</ele>
        <time>2016-10-27T18:18:35Z</time>
      </trkpt>
      <trkpt lat="43.22958" lon="-0.00283">
        <ele>324.045</ele>
        <time>2016-10-27T18:18:55Z</time>
      </trkpt>
      <trkpt lat="43.22867" lon="-0.00553">
        <ele>324.01</ele>
        <time>2016-10-27T18:19:15Z</time>
      </trkpt>
      <trkpt lat="43.22861" lon="-0.00631">
        <ele>324.08</ele>
        <time>2016-10-27T18:19:35Z</time>
      </trkpt>
      <trkpt lat="43.22899" lon="-0.00888">
        <ele>325.049</ele>
        <time>2016-10-27T18:19:55Z</time>
      </trkpt>
      <trkpt lat="43.22914" lon="-0.01227">
        <ele>325.045</ele>
        <time>2016-10-27T18:20:15Z</time>
      </trkpt>
      <trkpt lat="43.22997" lon="-0.01489">
        <ele>326.041</ele>
        <time>2016-10-27T18:20:35Z</time>
      </trkpt>
      <trkpt lat="43.2311" lon="-0.01431">
        <ele>323.062</ele>
        <time>2016-10-27T18:20:55Z</time>
      </trkpt>
      <trkpt lat="43.23038" lon="-0.01712">
        <ele>328.083</ele>
        <time>2016-10-27T18:21:15Z</time>
      </trkpt>
      <trkpt lat="43.23028" lon="-0.01787">
        <ele>330.008</ele>
        <time>2016-10-27T18:21:55Z</time>
      </trkpt>
      <trkpt lat="43.23003" lon="-0.01862">
        <ele>333.092</ele>
        <time>2016-10-27T18:22:15Z</time>
      </trkpt>
      <trkpt lat="43.22992" lon="-0.01982">
        <ele>349.031</ele>
        <time>2016-10-27T18:22:35Z</time>
      </trkpt>
      <trkpt lat="43.23074" lon="-0.0206">
        <ele>354.052</ele>
        <time>2016-10-27T18:22:55Z</time>
      </trkpt>
      <trkpt lat="43.23067" lon="-0.02085">
        <ele>359.017</ele>
        <time>2016-10-27T18:23:15Z</time>
      </trkpt>
      <trkpt lat="43.23005" lon="-0.02118">
        <ele>362.037</ele>
        <time>2016-10-27T18:23:35Z</time>
      </trkpt>
      <trkpt lat="43.22946" lon="-0.02116">
        <ele>368.036</ele>
        <time>2016-10-27T18:23:55Z</time>
      </trkpt>
      <trkpt lat="43.229" lon="-0.02154">
        <ele>372.022</ele>
        <time>2016-10-27T18:24:15Z</time>
      </trkpt>
      <trkpt lat="43.22864" lon="-0.02158">
        <ele>373.098</ele>
        <time>2016-10-27T18:24:35Z</time>
      </trkpt>
      <trkpt lat="43.22816" lon="-0.02197">
        <ele>374.082</ele>
        <time>2016-10-27T18:24:55Z</time>
      </trkpt>
      <trkpt lat="43.22627" lon="-0.02186">
        <ele>371.043</ele>
        <time>2016-10-27T18:25:15Z</time>
      </trkpt>
      <trkpt lat="43.22594" lon="-0.02156">
        <ele>363.017</ele>
        <time>2016-10-27T18:25:35Z</time>
      </trkpt>
      <trkpt lat="43.22491" lon="-0.02191">
        <ele>371.074</ele>
        <time>2016-10-27T18:26:15Z</time>
      </trkpt>
      <trkpt lat="43.22392" lon="-0.02251">
        <ele>379.013</ele>
        <time>2016-10-27T18:26:35Z</time>
      </trkpt>
      <trkpt lat="43.22375" lon="-0.02285">
        <ele>380.054</ele>
        <time>2016-10-27T18:26:55Z</time>
      </trkpt>
      <trkpt lat="43.22269" lon="-0.02298">
        <ele>369.099</ele>
        <time>2016-10-27T18:27:15Z</time>
      </trkpt>
      <trkpt lat="43.22215" lon="-0.02332">
        <ele>366.089</ele>
        <time>2016-10-27T18:27:35Z</time>
      </trkpt>
      <trkpt lat="43.22187" lon="-0.02375">
        <ele>378.098</ele>
        <time>2016-10-27T18:27:55Z</time>
      </trkpt>
      <trkpt lat="43.22103" lon="-0.02397">
        <ele>375.094</ele>
        <time>2016-10-27T18:28:15Z</time>
      </trkpt>
      <trkpt lat="43.22065" lon="-0.02446">
        <ele>380.01</ele>
        <time>2016-10-27T18:28:35Z</time>
      </trkpt>
      <trkpt lat="43.22026" lon="-0.02461">
        <ele>379.057</ele>
        <time>2016-10-27T18:28:55Z</time>
      </trkpt>
      <trkpt lat="43.21984" lon="-0.02459">
        <ele>370</ele>
        <time>2016-10-27T18:29:15Z</time>
      </trkpt>
      <trkpt lat="43.21954" lon="-0.02474">
        <ele>368.02</ele>
        <time>2016-10-27T18:29:35Z</time>
      </trkpt>
      <trkpt lat="43.21912" lon="-0.02457">
        <ele>361.008</ele>
        <time>2016-10-27T18:29:55Z</time>
      </trkpt>
      <trkpt lat="43.21871" lon="-0.02403">
        <ele>353.091</ele>
        <time>2016-10-27T18:30:15Z</time>
      </trkpt>
      <trkpt lat="43.21806" lon="-0.02388">
        <ele>352.05</ele>
        <time>2016-10-27T18:30:35Z</time>
      </trkpt>
      <trkpt lat="43.2174" lon="-0.02427">
        <ele>358.081</ele>
        <time>2016-10-27T18:30:55Z</time>
      </trkpt>
      <trkpt lat="43.21707" lon="-0.02455">
        <ele>361.086</ele>
        <time>2016-10-27T18:31:15Z</time>
      </trkpt>
      <trkpt lat="43.2164" lon="-0.02457">
        <ele>358.096</ele>
        <time>2016-10-27T18:31:35Z</time>
      </trkpt>
      <trkpt lat="43.21568" lon="-0.02491">
        <ele>359.025</ele>
        <time>2016-10-27T18:31:55Z</time>
      </trkpt>
      <trkpt lat="43.21513" lon="-0.02489">
        <ele>356.051</ele>
        <time>2016-10-27T18:32:15Z</time>
      </trkpt>
      <trkpt lat="43.21487" lon="-0.02525">
        <ele>361.027</ele>
        <time>2016-10-27T18:32:35Z</time>
      </trkpt>
      <trkpt lat="43.21382" lon="-0.02547">
        <ele>356.014</ele>
        <time>2016-10-27T18:32:55Z</time>
      </trkpt>
      <trkpt lat="43.21347" lon="-0.02573">
        <ele>356.054</ele>
        <time>2016-10-27T18:33:15Z</time>
      </trkpt>
      <trkpt lat="43.21324" lon="-0.02555">
        <ele>352.009</ele>
        <time>2016-10-27T18:33:35Z</time>
      </trkpt>
      <trkpt lat="43.21299" lon="-0.02555">
        <ele>351.008</ele>
        <time>2016-10-27T18:33:55Z</time>
      </trkpt>
      <trkpt lat="43.21288" lon="-0.0265">
        <ele>358.037</ele>
        <time>2016-10-27T18:34:15Z</time>
      </trkpt>
      <trkpt lat="43.21252" lon="-0.02736">
        <ele>363.046</ele>
        <time>2016-10-27T18:34:35Z</time>
      </trkpt>
      <trkpt lat="43.21219" lon="-0.02727">
        <ele>357.037</ele>
        <time>2016-10-27T18:34:55Z</time>
      </trkpt>
      <trkpt lat="43.21199" lon="-0.02706">
        <ele>355.032</ele>
        <time>2016-10-27T18:35:15Z</time>
      </trkpt>
      <trkpt lat="43.21129" lon="-0.02817">
        <ele>359.022</ele>
        <time>2016-10-27T18:35:35Z</time>
      </trkpt>
      <trkpt lat="43.21019" lon="-0.02821">
        <ele>356.061</ele>
        <time>2016-10-27T18:35:55Z</time>
      </trkpt>
      <trkpt lat="43.20994" lon="-0.02804">
        <ele>353.067</ele>
        <time>2016-10-27T18:36:15Z</time>
      </trkpt>
      <trkpt lat="43.20964" lon="-0.02879">
        <ele>357.063</ele>
        <time>2016-10-27T18:36:35Z</time>
      </trkpt>
      <trkpt lat="43.20933" lon="-0.02935">
        <ele>359.013</ele>
        <time>2016-10-27T18:36:55Z</time>
      </trkpt>
      <trkpt lat="43.20977" lon="-0.03055">
        <ele>369.043</ele>
        <time>2016-10-27T18:37:15Z</time>
      </trkpt>
      <trkpt lat="43.20982" lon="-0.03141">
        <ele>377.007</ele>
        <time>2016-10-27T18:37:35Z</time>
      </trkpt>
      <trkpt lat="43.20949" lon="-0.03165">
        <ele>379.008</ele>
        <time>2016-10-27T18:37:55Z</time>
      </trkpt>
      <trkpt lat="43.20889" lon="-0.03169">
        <ele>386.037</ele>
        <time>2016-10-27T18:38:15Z</time>
      </trkpt>
      <trkpt lat="43.20888" lon="-0.03193">
        <ele>387.026</ele>
        <time>2016-10-27T18:38:35Z</time>
      </trkpt>
      <trkpt lat="43.20974" lon="-0.03313">
        <ele>402.017</ele>
        <time>2016-10-27T18:38:55Z</time>
      </trkpt>
      <trkpt lat="43.21038" lon="-0.03487">
        <ele>432.032</ele>
        <time>2016-10-27T18:39:15Z</time>
      </trkpt>
      <trkpt lat="43.21021" lon="-0.03549">
        <ele>438.052</ele>
        <time>2016-10-27T18:39:35Z</time>
      </trkpt>
      <trkpt lat="43.21" lon="-0.03566">
        <ele>438.011</ele>
        <time>2016-10-27T18:39:55Z</time>
      </trkpt>
      <trkpt lat="43.20997" lon="-0.03611">
        <ele>435.057</ele>
        <time>2016-10-27T18:40:15Z</time>
      </trkpt>
      <trkpt lat="43.20999" lon="-0.03667">
        <ele>438.083</ele>
        <time>2016-10-27T18:40:35Z</time>
      </trkpt>
      <trkpt lat="43.20966" lon="-0.03716">
        <ele>437.045</ele>
        <time>2016-10-27T18:40:55Z</time>
      </trkpt>
      <trkpt lat="43.20946" lon="-0.03768">
        <ele>438.047</ele>
        <time>2016-10-27T18:41:15Z</time>
      </trkpt>
      <trkpt lat="43.20889" lon="-0.0377">
        <ele>437.011</ele>
        <time>2016-10-27T18:41:35Z</time>
      </trkpt>
      <trkpt lat="43.20858" lon="-0.03819">
        <ele>438.008</ele>
        <time>2016-10-27T18:41:55Z</time>
      </trkpt>
      <trkpt lat="43.20856" lon="-0.03839">
        <ele>438.07</ele>
        <time>2016-10-27T18:42:15Z</time>
      </trkpt>
      <trkpt lat="43.20828" lon="-0.03881">
        <ele>436.099</ele>
        <time>2016-10-27T18:42:35Z</time>
      </trkpt>
      <trkpt lat="43.20789" lon="-0.03963">
        <ele>437.05</ele>
        <time>2016-10-27T18:42:55Z</time>
      </trkpt>
      <trkpt lat="43.20805" lon="-0.04075">
        <ele>436.055</ele>
        <time>2016-10-27T18:43:15Z</time>
      </trkpt>
      <trkpt lat="43.20666" lon="-0.04212">
        <ele>441.065</ele>
        <time>2016-10-27T18:43:35Z</time>
      </trkpt>
      <trkpt lat="43.20555" lon="-0.04392">
        <ele>442.034</ele>
        <time>2016-10-27T18:43:55Z</time>
      </trkpt>
      <trkpt lat="43.20442" lon="-0.04506">
        <ele>441.07</ele>
        <time>2016-10-27T18:44:15Z</time>
      </trkpt>
      <trkpt lat="43.20259" lon="-0.0459">
        <ele>443.036</ele>
        <time>2016-10-27T18:44:35Z</time>
      </trkpt>
      <trkpt lat="43.20174" lon="-0.04671">
        <ele>446.092</ele>
        <time>2016-10-27T18:44:55Z</time>
      </trkpt>
      <trkpt lat="43.20112" lon="-0.04755">
        <ele>449.073</ele>
        <time>2016-10-27T18:45:15Z</time>
      </trkpt>
      <trkpt lat="43.2006" lon="-0.04851">
        <ele>449.02</ele>
        <time>2016-10-27T18:45:35Z</time>
      </trkpt>
      <trkpt lat="43.1992" lon="-0.05002">
        <ele>454.008</ele>
        <time>2016-10-27T18:45:55Z</time>
      </trkpt>
      <trkpt lat="43.19787" lon="-0.05109">
        <ele>455.035</ele>
        <time>2016-10-27T18:46:15Z</time>
      </trkpt>
      <trkpt lat="43.19666" lon="-0.05227">
        <ele>456.094</ele>
        <time>2016-10-27T18:46:35Z</time>
      </trkpt>
      <trkpt lat="43.19563" lon="-0.05341">
        <ele>459.055</ele>
        <time>2016-10-27T18:46:55Z</time>
      </trkpt>
      <trkpt lat="43.19458" lon="-0.05433">
        <ele>461.08</ele>
        <time>2016-10-27T18:47:15Z</time>
      </trkpt>
      <trkpt lat="43.19295" lon="-0.05579">
        <ele>461.03</ele>
        <time>2016-10-27T18:47:35Z</time>
      </trkpt>
      <trkpt lat="43.19247" lon="-0.05559">
        <ele>461.019</ele>
        <time>2016-10-27T18:47:55Z</time>
      </trkpt>
      <trkpt lat="43.19094" lon="-0.05632">
        <ele>464.075</ele>
        <time>2016-10-27T18:48:15Z</time>
      </trkpt>
      <trkpt lat="43.19026" lon="-0.05622">
        <ele>464.071</ele>
        <time>2016-10-27T18:48:35Z</time>
      </trkpt>
      <trkpt lat="43.18936" lon="-0.05695">
        <ele>466.067</ele>
        <time>2016-10-27T18:48:55Z</time>
      </trkpt>
      <trkpt lat="43.18887" lon="-0.05703">
        <ele>466.081</ele>
        <time>2016-10-27T18:49:15Z</time>
      </trkpt>
      <trkpt lat="43.18666" lon="-0.05903">
        <ele>467.019</ele>
        <time>2016-10-27T18:49:35Z</time>
      </trkpt>
      <trkpt lat="43.18648" lon="-0.05952">
        <ele>468.008</ele>
        <time>2016-10-27T18:49:55Z</time>
      </trkpt>
      <trkpt lat="43.18532" lon="-0.06038">
        <ele>469.072</ele>
        <time>2016-10-27T18:50:15Z</time>
      </trkpt>
      <trkpt lat="43.18529" lon="-0.061">
        <ele>471.071</ele>
        <time>2016-10-27T18:50:35Z</time>
      </trkpt>
      <trkpt lat="43.18463" lon="-0.06332">
        <ele>470.072</ele>
        <time>2016-10-27T18:50:55Z</time>
      </trkpt>
      <trkpt lat="43.18142" lon="-0.06499">
        <ele>473.067</ele>
        <time>2016-10-27T18:51:15Z</time>
      </trkpt>
      <trkpt lat="43.17931" lon="-0.06508">
        <ele>476.027</ele>
        <time>2016-10-27T18:51:35Z</time>
      </trkpt>
      <trkpt lat="43.17847" lon="-0.06534">
        <ele>477.066</ele>
        <time>2016-10-27T18:51:55Z</time>
      </trkpt>
      <trkpt lat="43.17745" lon="-0.06532">
        <ele>477.032</ele>
        <time>2016-10-27T18:52:15Z</time>
      </trkpt>
      <trkpt lat="43.17676" lon="-0.06499">
        <ele>479.038</ele>
        <time>2016-10-27T18:52:35Z</time>
      </trkpt>
      <trkpt lat="43.17535" lon="-0.06527">
        <ele>480.061</ele>
        <time>2016-10-27T18:52:55Z</time>
      </trkpt>
      <trkpt lat="43.17078" lon="-0.06647">
        <ele>487.021</ele>
        <time>2016-10-27T18:53:15Z</time>
      </trkpt>
      <trkpt lat="43.16613" lon="-0.06761">
        <ele>492.013</ele>
        <time>2016-10-27T18:53:35Z</time>
      </trkpt>
      <trkpt lat="43.16598" lon="-0.06785">
        <ele>492.008</ele>
        <time>2016-10-27T18:53:55Z</time>
      </trkpt>
      <trkpt lat="43.16599" lon="-0.06849">
        <ele>489.092</ele>
        <time>2016-10-27T18:54:15Z</time>
      </trkpt>
      <trkpt lat="43.16311" lon="-0.06939">
        <ele>496.061</ele>
        <time>2016-10-27T18:54:35Z</time>
      </trkpt>
      <trkpt lat="43.16307" lon="-0.07008">
        <ele>494.092</ele>
        <time>2016-10-27T18:54:55Z</time>
      </trkpt>
      <trkpt lat="43.16033" lon="-0.07042">
        <ele>501.027</ele>
        <time>2016-10-27T18:55:15Z</time>
      </trkpt>
      <trkpt lat="43.1595" lon="-0.07156">
        <ele>507.087</ele>
        <time>2016-10-27T18:55:35Z</time>
      </trkpt>
      <trkpt lat="43.15599" lon="-0.06909">
        <ele>525.076</ele>
        <time>2016-10-27T18:55:55Z</time>
      </trkpt>
      <trkpt lat="43.15364" lon="-0.06699">
        <ele>528.038</ele>
        <time>2016-10-27T18:56:35Z</time>
      </trkpt>
      <trkpt lat="43.15164" lon="-0.06499">
        <ele>532.099</ele>
        <time>2016-10-27T18:56:55Z</time>
      </trkpt>
      <trkpt lat="43.15043" lon="-0.06362">
        <ele>536.007</ele>
        <time>2016-10-27T18:57:15Z</time>
      </trkpt>
      <trkpt lat="43.14934" lon="-0.06351">
        <ele>537.027</ele>
        <time>2016-10-27T18:57:35Z</time>
      </trkpt>
      <trkpt lat="43.14914" lon="-0.06326">
        <ele>541.008</ele>
        <time>2016-10-27T18:57:55Z</time>
      </trkpt>
      <trkpt lat="43.14899" lon="-0.06343">
        <ele>540.065</ele>
        <time>2016-10-27T18:58:15Z</time>
      </trkpt>
      <trkpt lat="43.14762" lon="-0.06306">
        <ele>543.034</ele>
        <time>2016-10-27T18:58:35Z</time>
      </trkpt>
      <trkpt lat="43.14552" lon="-0.06218">
        <ele>544.045</ele>
        <time>2016-10-27T18:58:55Z</time>
      </trkpt>
      <trkpt lat="43.14038" lon="-0.06135">
        <ele>540.01</ele>
        <time>2016-10-27T18:59:15Z</time>
      </trkpt>
      <trkpt lat="43.13165" lon="-0.05982">
        <ele>546.04</ele>
        <time>2016-10-27T18:59:35Z</time>
      </trkpt>
      <trkpt lat="43.13121" lon="-0.05956">
        <ele>548.019</ele>
        <time>2016-10-27T18:59:55Z</time>
      </trkpt>
      <trkpt lat="43.13071" lon="-0.05956">
        <ele>546.025</ele>
        <time>2016-10-27T19:00:15Z</time>
      </trkpt>
      <trkpt lat="43.12887" lon="-0.05836">
        <ele>541.041</ele>
        <time>2016-10-27T19:00:35Z</time>
      </trkpt>
      <trkpt lat="43.12836" lon="-0.05712">
        <ele>544.091</ele>
        <time>2016-10-27T19:00:55Z</time>
      </trkpt>
      <trkpt lat="43.12822" lon="-0.05615">
        <ele>541.081</ele>
        <time>2016-10-27T19:01:15Z</time>
      </trkpt>
      <trkpt lat="43.12784" lon="-0.05525">
        <ele>535.019</ele>
        <time>2016-10-27T19:01:35Z</time>
      </trkpt>
      <trkpt lat="43.12825" lon="-0.05435">
        <ele>532.008</ele>
        <time>2016-10-27T19:01:55Z</time>
      </trkpt>
      <trkpt lat="43.12789" lon="-0.05349">
        <ele>530.055</ele>
        <time>2016-10-27T19:02:15Z</time>
      </trkpt>
      <trkpt lat="43.12767" lon="-0.0527">
        <ele>532.024</ele>
        <time>2016-10-27T19:02:35Z</time>
      </trkpt>
      <trkpt lat="43.12664" lon="-0.05137">
        <ele>517.035</ele>
        <time>2016-10-27T19:02:55Z</time>
      </trkpt>
      <trkpt lat="43.12609" lon="-0.05117">
        <ele>514.06</ele>
        <time>2016-10-27T19:03:15Z</time>
      </trkpt>
      <trkpt lat="43.12541" lon="-0.05066">
        <ele>505.07</ele>
        <time>2016-10-27T19:03:35Z</time>
      </trkpt>
      <trkpt lat="43.12496" lon="-0.04967">
        <ele>495.079</ele>
        <time>2016-10-27T19:03:55Z</time>
      </trkpt>
      <trkpt lat="43.12421" lon="-0.04916">
        <ele>491.035</ele>
        <time>2016-10-27T19:04:15Z</time>
      </trkpt>
      <trkpt lat="43.12432" lon="-0.04864">
        <ele>488.091</ele>
        <time>2016-10-27T19:04:35Z</time>
      </trkpt>
      <trkpt lat="43.12416" lon="-0.04836">
        <ele>486.035</ele>
        <time>2016-10-27T19:04:55Z</time>
      </trkpt>
      <trkpt lat="43.12413" lon="-0.04746">
        <ele>481.086</ele>
        <time>2016-10-27T19:05:15Z</time>
      </trkpt>
      <trkpt lat="43.12378" lon="-0.04705">
        <ele>480.014</ele>
        <time>2016-10-27T19:05:35Z</time>
      </trkpt>
      <trkpt lat="43.12361" lon="-0.04712">
        <ele>480.008</ele>
        <time>2016-10-27T19:05:55Z</time>
      </trkpt>
      <trkpt lat="43.12342" lon="-0.04667">
        <ele>479.059</ele>
        <time>2016-10-27T19:06:15Z</time>
      </trkpt>
      <trkpt lat="43.12308" lon="-0.04643">
        <ele>483.078</ele>
        <time>2016-10-27T19:06:35Z</time>
      </trkpt>
      <trkpt lat="43.1227" lon="-0.04648">
        <ele>485.049</ele>
        <time>2016-10-27T19:06:55Z</time>
      </trkpt>
      <trkpt lat="43.12181" lon="-0.04768">
        <ele>488.014</ele>
        <time>2016-10-27T19:07:15Z</time>
      </trkpt>
      <trkpt lat="43.12142" lon="-0.04869">
        <ele>492.034</ele>
        <time>2016-10-27T19:07:35Z</time>
      </trkpt>
      <trkpt lat="43.12067" lon="-0.04929">
        <ele>496.033</ele>
        <time>2016-10-27T19:07:55Z</time>
      </trkpt>
      <trkpt lat="43.12037" lon="-0.04941">
        <ele>498.039</ele>
        <time>2016-10-27T19:08:15Z</time>
      </trkpt>
      <trkpt lat="43.11987" lon="-0.04995">
        <ele>500.025</ele>
        <time>2016-10-27T19:08:35Z</time>
      </trkpt>
      <trkpt lat="43.11978" lon="-0.05107">
        <ele>505.064</ele>
        <time>2016-10-27T19:08:55Z</time>
      </trkpt>
      <trkpt lat="43.11945" lon="-0.05132">
        <ele>508.006</ele>
        <time>2016-10-27T19:09:15Z</time>
      </trkpt>
      <trkpt lat="43.11902" lon="-0.05248">
        <ele>516.016</ele>
        <time>2016-10-27T19:09:35Z</time>
      </trkpt>
      <trkpt lat="43.11855" lon="-0.05353">
        <ele>505.008</ele>
        <time>2016-10-27T19:09:55Z</time>
      </trkpt>
      <trkpt lat="43.11796" lon="-0.05394">
        <ele>503.052</ele>
        <time>2016-10-27T19:10:15Z</time>
      </trkpt>
      <trkpt lat="43.11707" lon="-0.05411">
        <ele>502.021</ele>
        <time>2016-10-27T19:10:35Z</time>
      </trkpt>
      <trkpt lat="43.11625" lon="-0.05392">
        <ele>499.052</ele>
        <time>2016-10-27T19:10:55Z</time>
      </trkpt>
      <trkpt lat="43.11578" lon="-0.05411">
        <ele>494.087</ele>
        <time>2016-10-27T19:11:15Z</time>
      </trkpt>
      <trkpt lat="43.11537" lon="-0.05463">
        <ele>491.037</ele>
        <time>2016-10-27T19:11:35Z</time>
      </trkpt>
      <trkpt lat="43.11539" lon="-0.05523">
        <ele>491.026</ele>
        <time>2016-10-27T19:11:55Z</time>
      </trkpt>
      <trkpt lat="43.11464" lon="-0.05701">
        <ele>490.092</ele>
        <time>2016-10-27T19:12:15Z</time>
      </trkpt>
      <trkpt lat="43.11459" lon="-0.05738">
        <ele>490.018</ele>
        <time>2016-10-27T19:12:35Z</time>
      </trkpt>
      <trkpt lat="43.11437" lon="-0.05783">
        <ele>488.095</ele>
        <time>2016-10-27T19:12:55Z</time>
      </trkpt>
      <trkpt lat="43.11436" lon="-0.06025">
        <ele>463.049</ele>
        <time>2016-10-27T19:13:15Z</time>
      </trkpt>
      <trkpt lat="43.11404" lon="-0.06023">
        <ele>460.023</ele>
        <time>2016-10-27T19:13:35Z</time>
      </trkpt>
      <trkpt lat="43.11374" lon="-0.0604">
        <ele>458.008</ele>
        <time>2016-10-27T19:13:55Z</time>
      </trkpt>
      <trkpt lat="43.11346" lon="-0.06126">
        <ele>447.055</ele>
        <time>2016-10-27T19:14:15Z</time>
      </trkpt>
      <trkpt lat="43.1127" lon="-0.06115">
        <ele>441.074</ele>
        <time>2016-10-27T19:14:35Z</time>
      </trkpt>
      <trkpt lat="43.11125" lon="-0.06139">
        <ele>428.085</ele>
        <time>2016-10-27T19:14:55Z</time>
      </trkpt>
      <trkpt lat="43.11044" lon="-0.06053">
        <ele>428.08</ele>
        <time>2016-10-27T19:15:15Z</time>
      </trkpt>
      <trkpt lat="43.11003" lon="-0.06047">
        <ele>427.03</ele>
        <time>2016-10-27T19:15:35Z</time>
      </trkpt>
      <trkpt lat="43.10898" lon="-0.05954">
        <ele>421.099</ele>
        <time>2016-10-27T19:15:55Z</time>
      </trkpt>
      <trkpt lat="43.1084" lon="-0.05952">
        <ele>421.065</ele>
        <time>2016-10-27T19:16:15Z</time>
      </trkpt>
      <trkpt lat="43.108" lon="-0.05905">
        <ele>421.011</ele>
        <time>2016-10-27T19:16:35Z</time>
      </trkpt>
      <trkpt lat="43.10701" lon="-0.05864">
        <ele>416.063</ele>
        <time>2016-10-27T19:16:55Z</time>
      </trkpt>
      <trkpt lat="43.10594" lon="-0.0574">
        <ele>412.044</ele>
        <time>2016-10-27T19:17:15Z</time>
      </trkpt>
      <trkpt lat="43.10457" lon="-0.05579">
        <ele>412.018</ele>
        <time>2016-10-27T19:17:35Z</time>
      </trkpt>
      <trkpt lat="43.10389" lon="-0.0554">
        <ele>410.008</ele>
        <time>2016-10-27T19:17:55Z</time>
      </trkpt>
      <trkpt lat="43.10228" lon="-0.05482">
        <ele>411.042</ele>
        <time>2016-10-27T19:18:15Z</time>
      </trkpt>
      <trkpt lat="43.10193" lon="-0.05493">
        <ele>410.041</ele>
        <time>2016-10-27T19:18:35Z</time>
      </trkpt>
      <trkpt lat="43.09963" lon="-0.0518">
        <ele>397.032</ele>
        <time>2016-10-27T19:18:55Z</time>
      </trkpt>
      <trkpt lat="43.09977" lon="-0.05261">
        <ele>399.097</ele>
        <time>2016-10-27T19:19:15Z</time>
      </trkpt>
      <trkpt lat="43.09955" lon="-0.05366">
        <ele>397.097</ele>
        <time>2016-10-27T19:19:35Z</time>
      </trkpt>
      <trkpt lat="43.09902" lon="-0.05353">
        <ele>384.066</ele>
        <time>2016-10-27T19:19:55Z</time>
      </trkpt>
      <trkpt lat="43.09911" lon="-0.05203">
        <ele>382.022</ele>
        <time>2016-10-27T19:20:15Z</time>
      </trkpt>
      <trkpt lat="43.0988" lon="-0.05115">
        <ele>385.068</ele>
        <time>2016-10-27T19:20:35Z</time>
      </trkpt>
      <trkpt lat="43.09867" lon="-0.05053">
        <ele>390.075</ele>
        <time>2016-10-27T19:20:55Z</time>
      </trkpt>
      <trkpt lat="43.09826" lon="-0.05034">
        <ele>382.028</ele>
        <time>2016-10-27T19:21:15Z</time>
      </trkpt>
      <trkpt lat="43.09823" lon="-0.05064">
        <ele>380.02</ele>
        <time>2016-10-27T19:21:35Z</time>
      </trkpt>
      <trkpt lat="43.09813" lon="-0.0506">
        <ele>380.008</ele>
        <time>2016-10-27T19:21:55Z</time>
      </trkpt>
      <trkpt lat="43.09802" lon="-0.05038">
        <ele>382.053</ele>
        <time>2016-10-27T19:22:15Z</time>
      </trkpt>
      <trkpt lat="43.09793" lon="-0.05068">
        <ele>380.052</ele>
        <time>2016-10-27T19:22:35Z</time>
      </trkpt>
      <trkpt lat="43.09715" lon="-0.05062">
        <ele>382.053</ele>
        <time>2016-10-27T19:22:55Z</time>
      </trkpt>
      <trkpt lat="43.09655" lon="-0.05047">
        <ele>389.058</ele>
        <time>2016-10-27T19:23:15Z</time>
      </trkpt>
      <trkpt lat="43.09596" lon="-0.05085">
        <ele>389.048</ele>
        <time>2016-10-27T19:23:35Z</time>
      </trkpt>
      <trkpt lat="43.0958" lon="-0.05092">
        <ele>393.077</ele>
        <time>2016-10-27T19:23:55Z</time>
      </trkpt>
      <trkpt lat="43.09564" lon="-0.05165">
        <ele>390.043</ele>
        <time>2016-10-27T19:24:15Z</time>
      </trkpt>
      <trkpt lat="43.09517" lon="-0.05229">
        <ele>386.079</ele>
        <time>2016-10-27T19:24:35Z</time>
      </trkpt>
      <trkpt lat="43.09403" lon="-0.05287">
        <ele>382.062</ele>
        <time>2016-10-27T19:24:55Z</time>
      </trkpt>
      <trkpt lat="43.09212" lon="-0.05484">
        <ele>381.083</ele>
        <time>2016-10-27T19:25:15Z</time>
      </trkpt>
      <trkpt lat="43.09193" lon="-0.05493">
        <ele>381.011</ele>
        <time>2016-10-27T19:25:35Z</time>
      </trkpt>
      <trkpt lat="43.0884" lon="-0.053">
        <ele>385.008</ele>
        <time>2016-10-27T19:25:55Z</time>
      </trkpt>
      <trkpt lat="43.08811" lon="-0.05268">
        <ele>396.012</ele>
        <time>2016-10-27T19:26:15Z</time>
      </trkpt>
      <trkpt lat="43.08781" lon="-0.05169">
        <ele>392.071</ele>
        <time>2016-10-27T19:26:35Z</time>
      </trkpt>
      <trkpt lat="43.08712" lon="-0.05079">
        <ele>383.032</ele>
        <time>2016-10-27T19:26:55Z</time>
      </trkpt>
      <trkpt lat="43.08638" lon="-0.05066">
        <ele>385.087</ele>
        <time>2016-10-27T19:27:15Z</time>
      </trkpt>
      <trkpt lat="43.0861" lon="-0.05047">
        <ele>384.047</ele>
        <time>2016-10-27T19:27:35Z</time>
      </trkpt>
      <trkpt lat="43.0856" lon="-0.05087">
        <ele>395.026</ele>
        <time>2016-10-27T19:27:55Z</time>
      </trkpt>
      <trkpt lat="43.08456" lon="-0.05124">
        <ele>390.022</ele>
        <time>2016-10-27T19:28:15Z</time>
      </trkpt>
      <trkpt lat="43.08441" lon="-0.05143">
        <ele>390.058</ele>
        <time>2016-10-27T19:28:35Z</time>
      </trkpt>
      <trkpt lat="43.08412" lon="-0.05152">
        <ele>388.095</ele>
        <time>2016-10-27T19:28:55Z</time>
      </trkpt>
      <trkpt lat="43.08391" lon="-0.05173">
        <ele>397.049</ele>
        <time>2016-10-27T19:29:15Z</time>
      </trkpt>
      <trkpt lat="43.08384" lon="-0.05197">
        <ele>400.023</ele>
        <time>2016-10-27T19:29:35Z</time>
      </trkpt>
      <trkpt lat="43.08279" lon="-0.05268">
        <ele>419.008</ele>
        <time>2016-10-27T19:29:55Z</time>
      </trkpt>
      <trkpt lat="43.08237" lon="-0.0524">
        <ele>409.075</ele>
        <time>2016-10-27T19:30:15Z</time>
      </trkpt>
      <trkpt lat="43.0819" lon="-0.05255">
        <ele>423.044</ele>
        <time>2016-10-27T19:30:35Z</time>
      </trkpt>
      <trkpt lat="43.08165" lon="-0.05306">
        <ele>433.065</ele>
        <time>2016-10-27T19:30:55Z</time>
      </trkpt>
      <trkpt lat="43.08143" lon="-0.05317">
        <ele>434.07</ele>
        <time>2016-10-27T19:31:15Z</time>
      </trkpt>
      <trkpt lat="43.08105" lon="-0.05377">
        <ele>450.09</ele>
        <time>2016-10-27T19:31:35Z</time>
      </trkpt>
      <trkpt lat="43.08071" lon="-0.05373">
        <ele>448.049</ele>
        <time>2016-10-27T19:31:55Z</time>
      </trkpt>
      <trkpt lat="43.08066" lon="-0.05362">
        <ele>447.015</ele>
        <time>2016-10-27T19:32:15Z</time>
      </trkpt>
      <trkpt lat="43.08044" lon="-0.05369">
        <ele>447.081</ele>
        <time>2016-10-27T19:32:35Z</time>
      </trkpt>
      <trkpt lat="43.07985" lon="-0.05351">
        <ele>441.012</ele>
        <time>2016-10-27T19:32:55Z</time>
      </trkpt>
      <trkpt lat="43.07906" lon="-0.05416">
        <ele>441.032</ele>
        <time>2016-10-27T19:33:15Z</time>
      </trkpt>
      <trkpt lat="43.07858" lon="-0.05416">
        <ele>436.005</ele>
        <time>2016-10-27T19:33:35Z</time>
      </trkpt>
      <trkpt lat="43.07742" lon="-0.05525">
        <ele>439.008</ele>
        <time>2016-10-27T19:33:55Z</time>
      </trkpt>
      <trkpt lat="43.07734" lon="-0.05557">
        <ele>443.067</ele>
        <time>2016-10-27T19:34:15Z</time>
      </trkpt>
      <trkpt lat="43.07712" lon="-0.05579">
        <ele>442.076</ele>
        <time>2016-10-27T19:34:35Z</time>
      </trkpt>
      <trkpt lat="43.07709" lon="-0.05611">
        <ele>452.027</ele>
        <time>2016-10-27T19:34:55Z</time>
      </trkpt>
      <trkpt lat="43.07652" lon="-0.0572">
        <ele>450.072</ele>
        <time>2016-10-27T19:35:15Z</time>
      </trkpt>
      <trkpt lat="43.07588" lon="-0.05774">
        <ele>454.012</ele>
        <time>2016-10-27T19:35:35Z</time>
      </trkpt>
      <trkpt lat="43.07535" lon="-0.05826">
        <ele>454.021</ele>
        <time>2016-10-27T19:35:55Z</time>
      </trkpt>
      <trkpt lat="43.07525" lon="-0.05866">
        <ele>465.097</ele>
        <time>2016-10-27T19:36:15Z</time>
      </trkpt>
      <trkpt lat="43.07416" lon="-0.05952">
        <ele>474.093</ele>
        <time>2016-10-27T19:36:35Z</time>
      </trkpt>
      <trkpt lat="43.07381" lon="-0.05993">
        <ele>474.013</ele>
        <time>2016-10-27T19:36:55Z</time>
      </trkpt>
      <trkpt lat="43.07375" lon="-0.06019">
        <ele>478.043</ele>
        <time>2016-10-27T19:37:15Z</time>
      </trkpt>
      <trkpt lat="43.07331" lon="-0.06092">
        <ele>475.007</ele>
        <time>2016-10-27T19:37:35Z</time>
      </trkpt>
      <trkpt lat="43.07297" lon="-0.06278">
        <ele>477.008</ele>
        <time>2016-10-27T19:37:55Z</time>
      </trkpt>
      <trkpt lat="43.073" lon="-0.06351">
        <ele>480.067</ele>
        <time>2016-10-27T19:38:15Z</time>
      </trkpt>
      <trkpt lat="43.0729" lon="-0.06486">
        <ele>484.016</ele>
        <time>2016-10-27T19:38:35Z</time>
      </trkpt>
      <trkpt lat="43.07251" lon="-0.06495">
        <ele>485.097</ele>
        <time>2016-10-27T19:38:55Z</time>
      </trkpt>
      <trkpt lat="43.07217" lon="-0.06465">
        <ele>486.042</ele>
        <time>2016-10-27T19:39:15Z</time>
      </trkpt>
      <trkpt lat="43.07118" lon="-0.06454">
        <ele>493.022</ele>
        <time>2016-10-27T19:39:35Z</time>
      </trkpt>
      <trkpt lat="43.07074" lon="-0.06504">
        <ele>505.011</ele>
        <time>2016-10-27T19:39:55Z</time>
      </trkpt>
      <trkpt lat="43.07002" lon="-0.0657">
        <ele>510.017</ele>
        <time>2016-10-27T19:40:15Z</time>
      </trkpt>
      <trkpt lat="43.07005" lon="-0.06609">
        <ele>513.023</ele>
        <time>2016-10-27T19:40:35Z</time>
      </trkpt>
      <trkpt lat="43.07002" lon="-0.0665">
        <ele>515.083</ele>
        <time>2016-10-27T19:40:55Z</time>
      </trkpt>
      <trkpt lat="43.07005" lon="-0.06692">
        <ele>514.025</ele>
        <time>2016-10-27T19:41:15Z</time>
      </trkpt>
      <trkpt lat="43.06952" lon="-0.06718">
        <ele>517.017</ele>
        <time>2016-10-27T19:41:35Z</time>
      </trkpt>
      <trkpt lat="43.06914" lon="-0.06849">
        <ele>516.008</ele>
        <time>2016-10-27T19:41:55Z</time>
      </trkpt>
      <trkpt lat="43.06913" lon="-0.06943">
        <ele>512.044</ele>
        <time>2016-10-27T19:42:15Z</time>
      </trkpt>
      <trkpt lat="43.06942" lon="-0.06991">
        <ele>506.093</ele>
        <time>2016-10-27T19:42:35Z</time>
      </trkpt>
      <trkpt lat="43.06958" lon="-0.07081">
        <ele>508.024</ele>
        <time>2016-10-27T19:42:55Z</time>
      </trkpt>
      <trkpt lat="43.06973" lon="-0.07146">
        <ele>515.259</ele>
        <time>2021-02-12T18:46:43Z</time>
      </trkpt>
      <trkpt lat="43.06961" lon="-0.0721">
        <ele>524.079</ele>
        <time>2016-10-27T19:43:35Z</time>
      </trkpt>
      <trkpt lat="43.06961" lon="-0.07252">
        <ele>532.078</ele>
        <time>2016-10-27T19:44:15Z</time>
      </trkpt>
      <trkpt lat="43.06971" lon="-0.07318">
        <ele>536.754</ele>
        <time>2021-02-12T18:47:43Z</time>
      </trkpt>
      <trkpt lat="43.06941" lon="-0.07401">
        <ele>550.15</ele>
        <time>2021-02-12T18:48:03Z</time>
      </trkpt>
      <trkpt lat="43.06933" lon="-0.07409">
        <ele>550.064</ele>
        <time>2016-10-27T19:45:15Z</time>
      </trkpt>
      <trkpt lat="43.06925" lon="-0.0745">
        <ele>556.006</ele>
        <time>2016-10-27T19:45:35Z</time>
      </trkpt>
      <trkpt lat="43.06997" lon="-0.07519">
        <ele>560.016</ele>
        <time>2016-10-27T19:45:55Z</time>
      </trkpt>
      <trkpt lat="43.07024" lon="-0.07559">
        <ele>558.008</ele>
        <time>2016-10-27T19:46:15Z</time>
      </trkpt>
      <trkpt lat="43.0699" lon="-0.07585">
        <ele>564.092</ele>
        <time>2021-02-12T18:49:43Z</time>
      </trkpt>
      <trkpt lat="43.06985" lon="-0.07615">
        <ele>568.021</ele>
        <time>2016-10-27T19:46:55Z</time>
      </trkpt>
      <trkpt lat="43.06948" lon="-0.07592">
        <ele>568.162</ele>
        <time>2021-02-12T18:50:23Z</time>
      </trkpt>
      <trkpt lat="43.0692" lon="-0.07603">
        <ele>571.617</ele>
        <time>2021-02-12T18:50:43Z</time>
      </trkpt>
      <trkpt lat="43.06916" lon="-0.07626">
        <ele>574.417</ele>
        <time>2021-02-12T18:51:03Z</time>
      </trkpt>
      <trkpt lat="43.06895" lon="-0.07658">
        <ele>586.946</ele>
        <time>2021-02-12T18:51:23Z</time>
      </trkpt>
      <trkpt lat="43.06903" lon="-0.07708">
        <ele>590.612</ele>
        <time>2021-02-12T18:51:43Z</time>
      </trkpt>
      <trkpt lat="43.06914" lon="-0.07729">
        <ele>596.088</ele>
        <time>2016-10-27T19:48:15Z</time>
      </trkpt>
      <trkpt lat="43.06951" lon="-0.07748">
        <ele>586.532</ele>
        <time>2021-02-12T18:52:23Z</time>
      </trkpt>
      <trkpt lat="43.0695" lon="-0.07755">
        <ele>587.592</ele>
        <time>2021-02-12T18:52:43Z</time>
      </trkpt>
      <trkpt lat="43.06911" lon="-0.07751">
        <ele>594.911</ele>
        <time>2021-02-12T18:53:03Z</time>
      </trkpt>
      <trkpt lat="43.06861" lon="-0.07729">
        <ele>605.008</ele>
        <time>2016-10-27T19:49:15Z</time>
      </trkpt>
      <trkpt lat="43.06842" lon="-0.07692">
        <ele>607.019</ele>
        <time>2016-10-27T19:49:35Z</time>
      </trkpt>
      <trkpt lat="43.06826" lon="-0.07744">
        <ele>621.078</ele>
        <time>2016-10-27T19:49:55Z</time>
      </trkpt>
      <trkpt lat="43.06804" lon="-0.07767">
        <ele>625.099</ele>
        <time>2016-10-27T19:50:15Z</time>
      </trkpt>
      <trkpt lat="43.06786" lon="-0.07817">
        <ele>626.074</ele>
        <time>2016-10-27T19:50:35Z</time>
      </trkpt>
      <trkpt lat="43.06765" lon="-0.07855">
        <ele>629.074</ele>
        <time>2016-10-27T19:50:55Z</time>
      </trkpt>
      <trkpt lat="43.06776" lon="-0.07877">
        <ele>629.023</ele>
        <time>2016-10-27T19:51:15Z</time>
      </trkpt>
      <trkpt lat="43.0679" lon="-0.07961">
        <ele>637.069</ele>
        <time>2016-10-27T19:51:35Z</time>
      </trkpt>
      <trkpt lat="43.06784" lon="-0.08021">
        <ele>651.035</ele>
        <time>2016-10-27T19:51:55Z</time>
      </trkpt>
      <trkpt lat="43.06826" lon="-0.08079">
        <ele>653.027</ele>
        <time>2016-10-27T19:52:15Z</time>
      </trkpt>
      <trkpt lat="43.0685" lon="-0.08091">
        <ele>648.068</ele>
        <time>2016-10-27T19:52:35Z</time>
      </trkpt>
      <trkpt lat="43.06859" lon="-0.0816">
        <ele>650.014</ele>
        <time>2016-10-27T19:52:55Z</time>
      </trkpt>
      <trkpt lat="43.06856" lon="-0.08287">
        <ele>676.008</ele>
        <time>2016-10-27T19:53:15Z</time>
      </trkpt>
      <trkpt lat="43.06829" lon="-0.08388">
        <ele>702.028</ele>
        <time>2016-10-27T19:53:35Z</time>
      </trkpt>
      <trkpt lat="43.0682" lon="-0.08484">
        <ele>699.077</ele>
        <time>2016-10-27T19:53:55Z</time>
      </trkpt>
      <trkpt lat="43.06776" lon="-0.08538">
        <ele>705.018</ele>
        <time>2016-10-27T19:54:15Z</time>
      </trkpt>
      <trkpt lat="43.06773" lon="-0.08576">
        <ele>707.023</ele>
        <time>2016-10-27T19:54:35Z</time>
      </trkpt>
      <trkpt lat="43.06793" lon="-0.08662">
        <ele>710.033</ele>
        <time>2016-10-27T19:54:55Z</time>
      </trkpt>
      <trkpt lat="43.06804" lon="-0.08761">
        <ele>720.032</ele>
        <time>2016-10-27T19:55:15Z</time>
      </trkpt>
      <trkpt lat="43.06803" lon="-0.08815">
        <ele>722.088</ele>
        <time>2016-10-27T19:55:35Z</time>
      </trkpt>
      <trkpt lat="43.06865" lon="-0.08991">
        <ele>724.054</ele>
        <time>2016-10-27T19:55:55Z</time>
      </trkpt>
      <trkpt lat="43.06923" lon="-0.09085">
        <ele>727.043</ele>
        <time>2016-10-27T19:56:15Z</time>
      </trkpt>
      <trkpt lat="43.06933" lon="-0.09158">
        <ele>729.064</ele>
        <time>2016-10-27T19:56:35Z</time>
      </trkpt>
      <trkpt lat="43.06898" lon="-0.09175">
        <ele>731.01</ele>
        <time>2016-10-27T19:56:55Z</time>
      </trkpt>
      <trkpt lat="43.06878" lon="-0.09205">
        <ele>732.008</ele>
        <time>2016-10-27T19:57:15Z</time>
      </trkpt>
      <trkpt lat="43.06914" lon="-0.09351">
        <ele>727.04</ele>
        <time>2016-10-27T19:57:35Z</time>
      </trkpt>
      <trkpt lat="43.06895" lon="-0.09368">
        <ele>726.059</ele>
        <time>2016-10-27T19:57:55Z</time>
      </trkpt>
      <trkpt lat="43.06834" lon="-0.09375">
        <ele>726.09</ele>
        <time>2016-10-27T19:58:15Z</time>
      </trkpt>
      <trkpt lat="43.06792" lon="-0.09403">
        <ele>727.015</ele>
        <time>2016-10-27T19:58:35Z</time>
      </trkpt>
      <trkpt lat="43.06699" lon="-0.09497">
        <ele>723.035</ele>
        <time>2016-10-27T19:58:55Z</time>
      </trkpt>
      <trkpt lat="43.06677" lon="-0.09574">
        <ele>722.034</ele>
        <time>2016-10-27T19:59:15Z</time>
      </trkpt>
      <trkpt lat="43.06635" lon="-0.09681">
        <ele>726.06</ele>
        <time>2016-10-27T19:59:35Z</time>
      </trkpt>
      <trkpt lat="43.06569" lon="-0.09754">
        <ele>728.046</ele>
        <time>2016-10-27T19:59:55Z</time>
      </trkpt>
      <trkpt lat="43.06558" lon="-0.09806">
        <ele>728.092</ele>
        <time>2016-10-27T20:00:15Z</time>
      </trkpt>
      <trkpt lat="43.06496" lon="-0.09937">
        <ele>732.073</ele>
        <time>2016-10-27T20:00:35Z</time>
      </trkpt>
      <trkpt lat="43.06503" lon="-0.09978">
        <ele>731.02</ele>
        <time>2016-10-27T20:00:55Z</time>
      </trkpt>
      <trkpt lat="43.0635" lon="-0.10336">
        <ele>742.008</ele>
        <time>2016-10-27T20:01:15Z</time>
      </trkpt>
      <trkpt lat="43.06315" lon="-0.10357">
        <ele>743.055</ele>
        <time>2016-10-27T20:01:35Z</time>
      </trkpt>
      <trkpt lat="43.06293" lon="-0.1046">
        <ele>747.024</ele>
        <time>2016-10-27T20:01:55Z</time>
      </trkpt>
      <trkpt lat="43.06195" lon="-0.10742">
        <ele>756.025</ele>
        <time>2016-10-27T20:02:15Z</time>
      </trkpt>
      <trkpt lat="43.0611" lon="-0.10922">
        <ele>766.05</ele>
        <time>2016-10-27T20:02:35Z</time>
      </trkpt>
      <trkpt lat="43.06085" lon="-0.10999">
        <ele>766.08</ele>
        <time>2016-10-27T20:02:55Z</time>
      </trkpt>
      <trkpt lat="43.06036" lon="-0.11089">
        <ele>776.099</ele>
        <time>2016-10-27T20:03:15Z</time>
      </trkpt>
      <trkpt lat="43.06091" lon="-0.11143">
        <ele>786.025</ele>
        <time>2016-10-27T20:03:35Z</time>
      </trkpt>
      <trkpt lat="43.06151" lon="-0.11128">
        <ele>788.051</ele>
        <time>2016-10-27T20:03:55Z</time>
      </trkpt>
      <trkpt lat="43.06162" lon="-0.11138">
        <ele>790.068</ele>
        <time>2016-10-27T20:04:15Z</time>
      </trkpt>
      <trkpt lat="43.06165" lon="-0.11166">
        <ele>800.042</ele>
        <time>2016-10-27T20:04:35Z</time>
      </trkpt>
      <trkpt lat="43.06111" lon="-0.11235">
        <ele>804.026</ele>
        <time>2016-10-27T20:04:55Z</time>
      </trkpt>
      <trkpt lat="43.06039" lon="-0.11392">
        <ele>826.008</ele>
        <time>2016-10-27T20:05:15Z</time>
      </trkpt>
      <trkpt lat="43.06008" lon="-0.11409">
        <ele>825.062</ele>
        <time>2016-10-27T20:05:35Z</time>
      </trkpt>
      <trkpt lat="43.05936" lon="-0.11531">
        <ele>852.051</ele>
        <time>2016-10-27T20:05:55Z</time>
      </trkpt>
      <trkpt lat="43.05906" lon="-0.11602">
        <ele>861.012</ele>
        <time>2016-10-27T20:06:15Z</time>
      </trkpt>
      <trkpt lat="43.05883" lon="-0.11615">
        <ele>860.027</ele>
        <time>2016-10-27T20:06:35Z</time>
      </trkpt>
      <trkpt lat="43.05848" lon="-0.11714">
        <ele>891.057</ele>
        <time>2016-10-27T20:06:55Z</time>
      </trkpt>
      <trkpt lat="43.05803" lon="-0.11782">
        <ele>895.056</ele>
        <time>2016-10-27T20:07:15Z</time>
      </trkpt>
      <trkpt lat="43.05776" lon="-0.11804">
        <ele>894.012</ele>
        <time>2016-10-27T20:07:35Z</time>
      </trkpt>
      <trkpt lat="43.05757" lon="-0.11823">
        <ele>895.078</ele>
        <time>2016-10-27T20:07:55Z</time>
      </trkpt>
      <trkpt lat="43.05723" lon="-0.11855">
        <ele>899.026</ele>
        <time>2016-10-27T20:08:15Z</time>
      </trkpt>
      <trkpt lat="43.0568" lon="-0.11924">
        <ele>925.047</ele>
        <time>2016-10-27T20:08:35Z</time>
      </trkpt>
      <trkpt lat="43.05608" lon="-0.11988">
        <ele>928.011</ele>
        <time>2016-10-27T20:08:55Z</time>
      </trkpt>
      <trkpt lat="43.05583" lon="-0.11988">
        <ele>926.008</ele>
        <time>2016-10-27T20:09:15Z</time>
      </trkpt>
      <trkpt lat="43.05525" lon="-0.12044">
        <ele>950.078</ele>
        <time>2016-10-27T20:09:35Z</time>
      </trkpt>
      <trkpt lat="43.05484" lon="-0.12091">
        <ele>969.037</ele>
        <time>2016-10-27T20:09:55Z</time>
      </trkpt>
      <trkpt lat="43.05444" lon="-0.12115">
        <ele>971.048</ele>
        <time>2016-10-27T20:10:15Z</time>
      </trkpt>
      <trkpt lat="43.05404" lon="-0.12166">
        <ele>970.073</ele>
        <time>2016-10-27T20:10:35Z</time>
      </trkpt>
      <trkpt lat="43.05375" lon="-0.12235">
        <ele>1000.083</ele>
        <time>2016-10-27T20:10:55Z</time>
      </trkpt>
      <trkpt lat="43.05326" lon="-0.12291">
        <ele>1009.052</ele>
        <time>2016-10-27T20:11:15Z</time>
      </trkpt>
      <trkpt lat="43.05309" lon="-0.12349">
        <ele>1038.048</ele>
        <time>2016-10-27T20:11:35Z</time>
      </trkpt>
      <trkpt lat="43.05345" lon="-0.12332">
        <ele>1041.034</ele>
        <time>2016-10-27T20:11:55Z</time>
      </trkpt>
      <trkpt lat="43.05329" lon="-0.12389">
        <ele>1059.342</ele>
        <time>2021-02-12T19:16:23Z</time>
      </trkpt>
      <trkpt lat="43.05362" lon="-0.12374">
        <ele>1069.022</ele>
        <time>2016-10-27T20:12:35Z</time>
      </trkpt>
      <trkpt lat="43.05359" lon="-0.12435">
        <ele>1093.014</ele>
        <time>2016-10-27T20:12:55Z</time>
      </trkpt>
      <trkpt lat="43.05335" lon="-0.12473">
        <ele>1100.008</ele>
        <time>2016-10-27T20:13:15Z</time>
      </trkpt>
      <trkpt lat="43.05299" lon="-0.12501">
        <ele>1100.04</ele>
        <time>2016-10-27T20:13:35Z</time>
      </trkpt>
      <trkpt lat="43.05232" lon="-0.12731">
        <ele>1124.089</ele>
        <time>2016-10-27T20:13:55Z</time>
      </trkpt>
      <trkpt lat="43.05204" lon="-0.1275">
        <ele>1117.03</ele>
        <time>2016-10-27T20:14:15Z</time>
      </trkpt>
      <trkpt lat="43.05152" lon="-0.129">
        <ele>1130.015</ele>
        <time>2016-10-27T20:14:35Z</time>
      </trkpt>
      <trkpt lat="43.05097" lon="-0.13033">
        <ele>1156.075</ele>
        <time>2016-10-27T20:14:55Z</time>
      </trkpt>
      <trkpt lat="43.05023" lon="-0.13151">
        <ele>1155.024</ele>
        <time>2016-10-27T20:15:15Z</time>
      </trkpt>
      <trkpt lat="43.04973" lon="-0.13207">
        <ele>1161.08</ele>
        <time>2016-10-27T20:15:35Z</time>
      </trkpt>
      <trkpt lat="43.04946" lon="-0.13243">
        <ele>1163.066</ele>
        <time>2016-10-27T20:15:55Z</time>
      </trkpt>
      <trkpt lat="43.04904" lon="-0.13291">
        <ele>1177.015</ele>
        <time>2016-10-27T20:16:15Z</time>
      </trkpt>
      <trkpt lat="43.04904" lon="-0.13312">
        <ele>1181.065</ele>
        <time>2016-10-27T20:16:35Z</time>
      </trkpt>
      <trkpt lat="43.04882" lon="-0.13346">
        <ele>1190.011</ele>
        <time>2016-10-27T20:16:55Z</time>
      </trkpt>
      <trkpt lat="43.04852" lon="-0.13432">
        <ele>1193.008</ele>
        <time>2016-10-27T20:17:15Z</time>
      </trkpt>
      <trkpt lat="43.04862" lon="-0.13456">
        <ele>1192.027</ele>
        <time>2016-10-27T20:17:35Z</time>
      </trkpt>
      <trkpt lat="43.04843" lon="-0.13495">
        <ele>1190.066</ele>
        <time>2016-10-27T20:17:55Z</time>
      </trkpt>
      <trkpt lat="43.04791" lon="-0.13546">
        <ele>1199.017</ele>
        <time>2016-10-27T20:18:15Z</time>
      </trkpt>
      <trkpt lat="43.04696" lon="-0.13767">
        <ele>1209.082</ele>
        <time>2016-10-27T20:18:35Z</time>
      </trkpt>
      <trkpt lat="43.04644" lon="-0.13926">
        <ele>1221.072</ele>
        <time>2016-10-27T20:18:55Z</time>
      </trkpt>
      <trkpt lat="43.04641" lon="-0.13994">
        <ele>1221.011</ele>
        <time>2016-10-27T20:19:15Z</time>
      </trkpt>
      <trkpt lat="43.04644" lon="-0.14132">
        <ele>1225.047</ele>
        <time>2016-10-27T20:19:35Z</time>
      </trkpt>
      <trkpt lat="43.04617" lon="-0.14185">
        <ele>1222.033</ele>
        <time>2016-10-27T20:19:55Z</time>
      </trkpt>
      <trkpt lat="43.04598" lon="-0.14231">
        <ele>1220.076</ele>
        <time>2016-10-27T20:20:15Z</time>
      </trkpt>
      <trkpt lat="43.04565" lon="-0.14299">
        <ele>1233.09</ele>
        <time>2016-10-27T20:20:35Z</time>
      </trkpt>
      <trkpt lat="43.04576" lon="-0.14385">
        <ele>1228.019</ele>
        <time>2016-10-27T20:20:55Z</time>
      </trkpt>
      <trkpt lat="43.04548" lon="-0.14445">
        <ele>1226.008</ele>
        <time>2016-10-27T20:21:15Z</time>
      </trkpt>
      <trkpt lat="43.04518" lon="-0.14475">
        <ele>1229.043</ele>
        <time>2016-10-27T20:21:35Z</time>
      </trkpt>
      <trkpt lat="43.04482" lon="-0.14535">
        <ele>1242.012</ele>
        <time>2016-10-27T20:21:55Z</time>
      </trkpt>
      <trkpt lat="43.04471" lon="-0.1458">
        <ele>1241.083</ele>
        <time>2016-10-27T20:22:15Z</time>
      </trkpt>
      <trkpt lat="43.0446" lon="-0.14602">
        <ele>1238.078</ele>
        <time>2016-10-27T20:22:35Z</time>
      </trkpt>
      <trkpt lat="43.04451" lon="-0.14627">
        <ele>1239.078</ele>
        <time>2016-10-27T20:22:55Z</time>
      </trkpt>
      <trkpt lat="43.04366" lon="-0.14795">
        <ele>1237.077</ele>
        <time>2016-10-27T20:23:15Z</time>
      </trkpt>
      <trkpt lat="43.04304" lon="-0.14881">
        <ele>1246.073</ele>
        <time>2016-10-27T20:23:35Z</time>
      </trkpt>
      <trkpt lat="43.04228" lon="-0.14904">
        <ele>1275.089</ele>
        <time>2016-10-27T20:23:55Z</time>
      </trkpt>
      <trkpt lat="43.04205" lon="-0.14864">
        <ele>1287.081</ele>
        <time>2016-10-27T20:24:15Z</time>
      </trkpt>
      <trkpt lat="43.04169" lon="-0.149">
        <ele>1292.061</ele>
        <time>2016-10-27T20:24:35Z</time>
      </trkpt>
      <trkpt lat="43.04153" lon="-0.14904">
        <ele>1312.017</ele>
        <time>2016-10-27T20:24:55Z</time>
      </trkpt>
      <trkpt lat="43.0412" lon="-0.14936">
        <ele>1320.008</ele>
        <time>2016-10-27T20:25:15Z</time>
      </trkpt>
      <trkpt lat="43.04109" lon="-0.14917">
        <ele>1324.024</ele>
        <time>2016-10-27T20:25:35Z</time>
      </trkpt>
      <trkpt lat="43.04095" lon="-0.14926">
        <ele>1329.043</ele>
        <time>2016-10-27T20:25:55Z</time>
      </trkpt>
      <trkpt lat="43.04095" lon="-0.14964">
        <ele>1325.054</ele>
        <time>2016-10-27T20:26:15Z</time>
      </trkpt>
      <trkpt lat="43.04054" lon="-0.14994">
        <ele>1356.089</ele>
        <time>2016-10-27T20:26:35Z</time>
      </trkpt>
      <trkpt lat="43.04048" lon="-0.15014">
        <ele>1360.099</ele>
        <time>2016-10-27T20:26:55Z</time>
      </trkpt>
      <trkpt lat="43.04029" lon="-0.15031">
        <ele>1365.068</ele>
        <time>2016-10-27T20:27:15Z</time>
      </trkpt>
      <trkpt lat="43.04024" lon="-0.15072">
        <ele>1367.084</ele>
        <time>2016-10-27T20:27:35Z</time>
      </trkpt>
      <trkpt lat="43.04009" lon="-0.1508">
        <ele>1373.09</ele>
        <time>2016-10-27T20:27:55Z</time>
      </trkpt>
      <trkpt lat="43.03999" lon="-0.15065">
        <ele>1386.089</ele>
        <time>2016-10-27T20:28:15Z</time>
      </trkpt>
      <trkpt lat="43.03985" lon="-0.15072">
        <ele>1387.006</ele>
        <time>2016-10-27T20:28:35Z</time>
      </trkpt>
      <trkpt lat="43.03949" lon="-0.15052">
        <ele>1398.026</ele>
        <time>2016-10-27T20:28:55Z</time>
      </trkpt>
      <trkpt lat="43.03908" lon="-0.15085">
        <ele>1413.008</ele>
        <time>2016-10-27T20:29:15Z</time>
      </trkpt>
      <trkpt lat="43.03899" lon="-0.1513">
        <ele>1416.014</ele>
        <time>2016-10-27T20:29:35Z</time>
      </trkpt>
      <trkpt lat="43.03875" lon="-0.1511">
        <ele>1418.053</ele>
        <time>2016-10-27T20:29:55Z</time>
      </trkpt>
      <trkpt lat="43.03835" lon="-0.15123">
        <ele>1421.014</ele>
        <time>2016-10-27T20:30:15Z</time>
      </trkpt>
      <trkpt lat="43.03832" lon="-0.15175">
        <ele>1429.029</ele>
        <time>2016-10-27T20:30:35Z</time>
      </trkpt>
      <trkpt lat="43.03816" lon="-0.15218">
        <ele>1430.099</ele>
        <time>2016-10-27T20:30:55Z</time>
      </trkpt>
      <trkpt lat="43.03802" lon="-0.15228">
        <ele>1431.018</ele>
        <time>2016-10-27T20:31:15Z</time>
      </trkpt>
      <trkpt lat="43.03783" lon="-0.15269">
        <ele>1443.044</ele>
        <time>2016-10-27T20:31:35Z</time>
      </trkpt>
      <trkpt lat="43.03756" lon="-0.15256">
        <ele>1441.08</ele>
        <time>2016-10-27T20:31:55Z</time>
      </trkpt>
      <trkpt lat="43.03678" lon="-0.15254">
        <ele>1423.027</ele>
        <time>2016-10-27T20:32:15Z</time>
      </trkpt>
      <trkpt lat="43.03628" lon="-0.15301">
        <ele>1409.068</ele>
        <time>2016-10-27T20:32:35Z</time>
      </trkpt>
      <trkpt lat="43.03596" lon="-0.15325">
        <ele>1403.014</ele>
        <time>2016-10-27T20:32:55Z</time>
      </trkpt>
      <trkpt lat="43.03559" lon="-0.15372">
        <ele>1403.008</ele>
        <time>2016-10-27T20:33:15Z</time>
      </trkpt>
      <trkpt lat="43.03471" lon="-0.15415">
        <ele>1383.078</ele>
        <time>2016-10-27T20:33:35Z</time>
      </trkpt>
      <trkpt lat="43.03408" lon="-0.15424">
        <ele>1381.017</ele>
        <time>2016-10-27T20:33:55Z</time>
      </trkpt>
      <trkpt lat="43.03306" lon="-0.1549">
        <ele>1361.058</ele>
        <time>2016-10-27T20:34:15Z</time>
      </trkpt>
      <trkpt lat="43.03243" lon="-0.15593">
        <ele>1336.023</ele>
        <time>2016-10-27T20:34:35Z</time>
      </trkpt>
      <trkpt lat="43.03236" lon="-0.15666">
        <ele>1334.013</ele>
        <time>2016-10-27T20:34:55Z</time>
      </trkpt>
      <trkpt lat="43.03236" lon="-0.15739">
        <ele>1334.022</ele>
        <time>2016-10-27T20:35:15Z</time>
      </trkpt>
      <trkpt lat="43.03174" lon="-0.15752">
        <ele>1329.088</ele>
        <time>2016-10-27T20:35:35Z</time>
      </trkpt>
      <trkpt lat="43.03141" lon="-0.15739">
        <ele>1311.044</ele>
        <time>2016-10-27T20:35:55Z</time>
      </trkpt>
      <trkpt lat="43.0308" lon="-0.15788">
        <ele>1298.012</ele>
        <time>2016-10-27T20:36:15Z</time>
      </trkpt>
      <trkpt lat="43.03061" lon="-0.15793">
        <ele>1295.032</ele>
        <time>2016-10-27T20:36:35Z</time>
      </trkpt>
      <trkpt lat="43.03043" lon="-0.15825">
        <ele>1291.005</ele>
        <time>2016-10-27T20:36:55Z</time>
      </trkpt>
      <trkpt lat="43.03049" lon="-0.16024">
        <ele>1257.008</ele>
        <time>2016-10-27T20:37:15Z</time>
      </trkpt>
      <trkpt lat="43.03047" lon="-0.16097">
        <ele>1247.047</ele>
        <time>2016-10-27T20:37:35Z</time>
      </trkpt>
      <trkpt lat="43.03072" lon="-0.16218">
        <ele>1249.066</ele>
        <time>2016-10-27T20:37:55Z</time>
      </trkpt>
      <trkpt lat="43.03066" lon="-0.1628">
        <ele>1259.047</ele>
        <time>2016-10-27T20:38:15Z</time>
      </trkpt>
      <trkpt lat="43.03022" lon="-0.1632">
        <ele>1258.042</ele>
        <time>2016-10-27T20:38:35Z</time>
      </trkpt>
      <trkpt lat="43.0295" lon="-0.16323">
        <ele>1233.032</ele>
        <time>2016-10-27T20:38:55Z</time>
      </trkpt>
      <trkpt lat="43.02906" lon="-0.16333">
        <ele>1226.051</ele>
        <time>2016-10-27T20:39:15Z</time>
      </trkpt>
      <trkpt lat="43.02868" lon="-0.16331">
        <ele>1211.037</ele>
        <time>2016-10-27T20:39:35Z</time>
      </trkpt>
      <trkpt lat="43.02762" lon="-0.16368">
        <ele>1203.063</ele>
        <time>2016-10-27T20:39:55Z</time>
      </trkpt>
      <trkpt lat="43.02735" lon="-0.16428">
        <ele>1188.076</ele>
        <time>2016-10-27T20:40:15Z</time>
      </trkpt>
      <trkpt lat="43.02724" lon="-0.16582">
        <ele>1180.09</ele>
        <time>2016-10-27T20:40:35Z</time>
      </trkpt>
      <trkpt lat="43.02707" lon="-0.16687">
        <ele>1176.019</ele>
        <time>2016-10-27T20:40:55Z</time>
      </trkpt>
      <trkpt lat="43.02665" lon="-0.16857">
        <ele>1152.008</ele>
        <time>2016-10-27T20:41:15Z</time>
      </trkpt>
      <trkpt lat="43.02646" lon="-0.16971">
        <ele>1149.093</ele>
        <time>2016-10-27T20:41:35Z</time>
      </trkpt>
      <trkpt lat="43.02649" lon="-0.17026">
        <ele>1144.012</ele>
        <time>2016-10-27T20:41:55Z</time>
      </trkpt>
      <trkpt lat="43.02699" lon="-0.17125">
        <ele>1168.033</ele>
        <time>2016-10-27T20:42:15Z</time>
      </trkpt>
      <trkpt lat="43.02707" lon="-0.17177">
        <ele>1176.018</ele>
        <time>2016-10-27T20:42:35Z</time>
      </trkpt>
      <trkpt lat="43.02617" lon="-0.17265">
        <ele>1165.048</ele>
        <time>2016-10-27T20:42:55Z</time>
      </trkpt>
      <trkpt lat="43.02589" lon="-0.17282">
        <ele>1162.077</ele>
        <time>2016-10-27T20:43:15Z</time>
      </trkpt>
      <trkpt lat="43.02531" lon="-0.17443">
        <ele>1164.033</ele>
        <time>2016-10-27T20:43:35Z</time>
      </trkpt>
      <trkpt lat="43.02503" lon="-0.17477">
        <ele>1163.079</ele>
        <time>2016-10-27T20:43:55Z</time>
      </trkpt>
      <trkpt lat="43.02464" lon="-0.17503">
        <ele>1141.055</ele>
        <time>2016-10-27T20:44:15Z</time>
      </trkpt>
      <trkpt lat="43.0242" lon="-0.17595">
        <ele>1130.017</ele>
        <time>2016-10-27T20:44:55Z</time>
      </trkpt>
      <trkpt lat="43.02417" lon="-0.17625">
        <ele>1122.308</ele>
        <time>2021-02-12T19:49:23Z</time>
      </trkpt>
      <trkpt lat="43.02433" lon="-0.17647">
        <ele>1130.361</ele>
        <time>2021-02-12T19:49:43Z</time>
      </trkpt>
      <trkpt lat="43.0243" lon="-0.17709">
        <ele>1123.83</ele>
        <time>2021-02-12T19:50:03Z</time>
      </trkpt>
      <trkpt lat="43.02436" lon="-0.17773">
        <ele>1124.021</ele>
        <time>2016-10-27T20:45:55Z</time>
      </trkpt>
      <trkpt lat="43.02428" lon="-0.17792">
        <ele>1123.056</ele>
        <time>2016-10-27T20:46:15Z</time>
      </trkpt>
      <trkpt lat="43.02418" lon="-0.17842">
        <ele>1114.016</ele>
        <time>2016-10-27T20:46:35Z</time>
      </trkpt>
      <trkpt lat="43.02426" lon="-0.17887">
        <ele>1123.075</ele>
        <time>2016-10-27T20:46:55Z</time>
      </trkpt>
      <trkpt lat="43.02319" lon="-0.17953">
        <ele>1093.041</ele>
        <time>2016-10-27T20:47:15Z</time>
      </trkpt>
      <trkpt lat="43.0229" lon="-0.18003">
        <ele>1104.037</ele>
        <time>2016-10-27T20:47:35Z</time>
      </trkpt>
      <trkpt lat="43.02225" lon="-0.18056">
        <ele>1088.095</ele>
        <time>2016-10-27T20:47:55Z</time>
      </trkpt>
      <trkpt lat="43.02158" lon="-0.1808">
        <ele>1074.049</ele>
        <time>2016-10-27T20:48:15Z</time>
      </trkpt>
      <trkpt lat="43.02116" lon="-0.18108">
        <ele>1072.023</ele>
        <time>2016-10-27T20:48:35Z</time>
      </trkpt>
      <trkpt lat="43.02084" lon="-0.18147">
        <ele>1070.008</ele>
        <time>2016-10-27T20:48:55Z</time>
      </trkpt>
      <trkpt lat="43.02092" lon="-0.18224">
        <ele>1075.025</ele>
        <time>2016-10-27T20:49:15Z</time>
      </trkpt>
      <trkpt lat="43.0207" lon="-0.18305">
        <ele>1066.074</ele>
        <time>2016-10-27T20:49:35Z</time>
      </trkpt>
      <trkpt lat="43.02026" lon="-0.18325">
        <ele>1063.045</ele>
        <time>2016-10-27T20:49:55Z</time>
      </trkpt>
      <trkpt lat="43.01935" lon="-0.18292">
        <ele>1063.09</ele>
        <time>2016-10-27T20:50:15Z</time>
      </trkpt>
      <trkpt lat="43.01869" lon="-0.18244">
        <ele>1053.44</ele>
        <time>2021-02-12T19:55:03Z</time>
      </trkpt>
      <trkpt lat="43.0177" lon="-0.1822">
        <ele>1045.099</ele>
        <time>2016-10-27T20:50:55Z</time>
      </trkpt>
      <trkpt lat="43.01725" lon="-0.18187">
        <ele>1034.075</ele>
        <time>2016-10-27T20:51:15Z</time>
      </trkpt>
      <trkpt lat="43.01665" lon="-0.18181">
        <ele>1020.011</ele>
        <time>2016-10-27T20:51:35Z</time>
      </trkpt>
      <trkpt lat="43.01613" lon="-0.18192">
        <ele>1017.014</ele>
        <time>2016-10-27T20:51:55Z</time>
      </trkpt>
      <trkpt lat="43.0153" lon="-0.1817">
        <ele>1000.754</ele>
        <time>2021-02-12T19:56:43Z</time>
      </trkpt>
      <trkpt lat="43.01457" lon="-0.18184">
        <ele>992.409</ele>
        <time>2021-02-12T19:57:03Z</time>
      </trkpt>
      <trkpt lat="43.01395" lon="-0.18207">
        <ele>987.508</ele>
        <time>2021-02-12T19:57:23Z</time>
      </trkpt>
      <trkpt lat="43.01292" lon="-0.18292">
        <ele>993.097</ele>
        <time>2016-10-27T20:52:55Z</time>
      </trkpt>
      <trkpt lat="43.0124" lon="-0.18301">
        <ele>990.096</ele>
        <time>2016-10-27T20:53:15Z</time>
      </trkpt>
      <trkpt lat="43.01143" lon="-0.18415">
        <ele>999.037</ele>
        <time>2016-10-27T20:53:35Z</time>
      </trkpt>
      <trkpt lat="43.01077" lon="-0.18486">
        <ele>1011.082</ele>
        <time>2016-10-27T20:53:55Z</time>
      </trkpt>
      <trkpt lat="43.01052" lon="-0.18559">
        <ele>1018.072</ele>
        <time>2016-10-27T20:54:15Z</time>
      </trkpt>
      <trkpt lat="43.01075" lon="-0.18728">
        <ele>1033.081</ele>
        <time>2016-10-27T20:54:35Z</time>
      </trkpt>
      <trkpt lat="43.01063" lon="-0.18861">
        <ele>1045.097</ele>
        <time>2016-10-27T20:54:55Z</time>
      </trkpt>
      <trkpt lat="43.01038" lon="-0.1902">
        <ele>1057.013</ele>
        <time>2016-10-27T20:55:15Z</time>
      </trkpt>
      <trkpt lat="43.01017" lon="-0.19054">
        <ele>1055.055</ele>
        <time>2016-10-27T20:55:35Z</time>
      </trkpt>
      <trkpt lat="43.01013" lon="-0.1914">
        <ele>1049.907</ele>
        <time>2021-02-12T20:00:43Z</time>
      </trkpt>
      <trkpt lat="43.01044" lon="-0.19196">
        <ele>1054.017</ele>
        <time>2016-10-27T20:56:15Z</time>
      </trkpt>
      <trkpt lat="43.01025" lon="-0.19282">
        <ele>1049.008</ele>
        <time>2016-10-27T20:56:35Z</time>
      </trkpt>
      <trkpt lat="43.00987" lon="-0.19352">
        <ele>1048.021</ele>
        <time>2016-10-27T20:56:55Z</time>
      </trkpt>
      <trkpt lat="43.00986" lon="-0.19455">
        <ele>1059.04</ele>
        <time>2016-10-27T20:57:15Z</time>
      </trkpt>
      <trkpt lat="43.00994" lon="-0.19488">
        <ele>1065.091</ele>
        <time>2016-10-27T20:57:35Z</time>
      </trkpt>
      <trkpt lat="43.00987" lon="-0.19539">
        <ele>1072.086</ele>
        <time>2016-10-27T20:57:55Z</time>
      </trkpt>
      <trkpt lat="43.00945" lon="-0.19599">
        <ele>1082.066</ele>
        <time>2016-10-27T20:58:15Z</time>
      </trkpt>
      <trkpt lat="43.00928" lon="-0.19657">
        <ele>1087.075</ele>
        <time>2016-10-27T20:58:35Z</time>
      </trkpt>
      <trkpt lat="43.00892" lon="-0.19674">
        <ele>1085.031</ele>
        <time>2016-10-27T20:58:55Z</time>
      </trkpt>
      <trkpt lat="43.00857" lon="-0.19674">
        <ele>1079.037</ele>
        <time>2016-10-27T20:59:15Z</time>
      </trkpt>
      <trkpt lat="43.00807" lon="-0.1979">
        <ele>1075.053</ele>
        <time>2016-10-27T20:59:35Z</time>
      </trkpt>
      <trkpt lat="43.00835" lon="-0.20054">
        <ele>1096.004</ele>
        <time>2016-10-27T20:59:55Z</time>
      </trkpt>
      <trkpt lat="43.00876" lon="-0.20134">
        <ele>1096.014</ele>
        <time>2016-10-27T21:00:15Z</time>
      </trkpt>
      <trkpt lat="43.00904" lon="-0.20209">
        <ele>1092.008</ele>
        <time>2016-10-27T21:00:35Z</time>
      </trkpt>
      <trkpt lat="43.00951" lon="-0.20288">
        <ele>1106.031</ele>
        <time>2016-10-27T21:00:55Z</time>
      </trkpt>
      <trkpt lat="43.01053" lon="-0.20434">
        <ele>1122.08</ele>
        <time>2016-10-27T21:01:15Z</time>
      </trkpt>
      <trkpt lat="43.01027" lon="-0.20458">
        <ele>1120.091</ele>
        <time>2016-10-27T21:01:35Z</time>
      </trkpt>
      <trkpt lat="43.00986" lon="-0.20423">
        <ele>1115.016</ele>
        <time>2016-10-27T21:01:55Z</time>
      </trkpt>
      <trkpt lat="43.0095" lon="-0.2041">
        <ele>1109.066</ele>
        <time>2016-10-27T21:02:15Z</time>
      </trkpt>
      <trkpt lat="43.0092" lon="-0.20393">
        <ele>1110.035</ele>
        <time>2016-10-27T21:02:35Z</time>
      </trkpt>
      <trkpt lat="43.00807" lon="-0.20361">
        <ele>1094.071</ele>
        <time>2016-10-27T21:02:55Z</time>
      </trkpt>
      <trkpt lat="43.00692" lon="-0.20565">
        <ele>1106.027</ele>
        <time>2016-10-27T21:03:15Z</time>
      </trkpt>
      <trkpt lat="43.0068" lon="-0.20616">
        <ele>1119.033</ele>
        <time>2016-10-27T21:03:35Z</time>
      </trkpt>
      <trkpt lat="43.00661" lon="-0.20642">
        <ele>1106.015</ele>
        <time>2016-10-27T21:04:15Z</time>
      </trkpt>
      <trkpt lat="43.00631" lon="-0.2076">
        <ele>1134.008</ele>
        <time>2016-10-27T21:04:35Z</time>
      </trkpt>
      <trkpt lat="43.00611" lon="-0.20803">
        <ele>1135.049</ele>
        <time>2016-10-27T21:04:55Z</time>
      </trkpt>
      <trkpt lat="43.0057" lon="-0.20826">
        <ele>1124.038</ele>
        <time>2016-10-27T21:05:15Z</time>
      </trkpt>
      <trkpt lat="43.00556" lon="-0.2088">
        <ele>1134.049</ele>
        <time>2016-10-27T21:05:35Z</time>
      </trkpt>
      <trkpt lat="43.00529" lon="-0.20895">
        <ele>1132.074</ele>
        <time>2016-10-27T21:05:55Z</time>
      </trkpt>
      <trkpt lat="43.00388" lon="-0.21152">
        <ele>1165.064</ele>
        <time>2016-10-27T21:06:15Z</time>
      </trkpt>
      <trkpt lat="43.00378" lon="-0.21208">
        <ele>1176.043</ele>
        <time>2016-10-27T21:06:35Z</time>
      </trkpt>
      <trkpt lat="43.00325" lon="-0.21251">
        <ele>1176.029</ele>
        <time>2016-10-27T21:06:55Z</time>
      </trkpt>
      <trkpt lat="43.00316" lon="-0.21288">
        <ele>1184.085</ele>
        <time>2016-10-27T21:07:15Z</time>
      </trkpt>
      <trkpt lat="43.00264" lon="-0.21315">
        <ele>1185.061</ele>
        <time>2016-10-27T21:07:35Z</time>
      </trkpt>
      <trkpt lat="43.00231" lon="-0.21363">
        <ele>1192.021</ele>
        <time>2016-10-27T21:07:55Z</time>
      </trkpt>
      <trkpt lat="43.00198" lon="-0.2137">
        <ele>1191.313</ele>
        <time>2021-02-12T20:13:03Z</time>
      </trkpt>
      <trkpt lat="43.00171" lon="-0.21388">
        <ele>1191.008</ele>
        <time>2021-02-12T20:13:23Z</time>
      </trkpt>
      <trkpt lat="43.00164" lon="-0.21415">
        <ele>1192.492</ele>
        <time>2021-02-12T20:13:43Z</time>
      </trkpt>
      <trkpt lat="43.00168" lon="-0.21442">
        <ele>1195.961</ele>
        <time>2021-02-12T20:14:03Z</time>
      </trkpt>
      <trkpt lat="43.00133" lon="-0.21509">
        <ele>1205.922</ele>
        <time>2021-02-12T20:14:23Z</time>
      </trkpt>
      <trkpt lat="43.0011" lon="-0.2154">
        <ele>1209.497</ele>
        <time>2021-02-12T20:14:43Z</time>
      </trkpt>
      <trkpt lat="43.00089" lon="-0.2159">
        <ele>1212.687</ele>
        <time>2021-02-12T20:15:03Z</time>
      </trkpt>
      <trkpt lat="43.00068" lon="-0.21605">
        <ele>1216.896</ele>
        <time>2021-02-12T20:15:23Z</time>
      </trkpt>
      <trkpt lat="43.0006" lon="-0.21631">
        <ele>1222.072</ele>
        <time>2016-10-27T21:09:15Z</time>
      </trkpt>
      <trkpt lat="43.00057" lon="-0.2165">
        <ele>1224.058</ele>
        <time>2016-10-27T21:09:35Z</time>
      </trkpt>
      <trkpt lat="43.00007" lon="-0.21723">
        <ele>1235.094</ele>
        <time>2016-10-27T21:09:55Z</time>
      </trkpt>
      <trkpt lat="42.99992" lon="-0.21786">
        <ele>1248.857</ele>
        <time>2021-02-12T20:16:43Z</time>
      </trkpt>
      <trkpt lat="42.9997" lon="-0.21803">
        <ele>1261.022</ele>
        <time>2016-10-27T21:10:35Z</time>
      </trkpt>
      <trkpt lat="42.99909" lon="-0.21763">
        <ele>1267.708</ele>
        <time>2021-02-12T20:17:23Z</time>
      </trkpt>
      <trkpt lat="42.99888" lon="-0.21698">
        <ele>1263.195</ele>
        <time>2021-02-12T20:17:43Z</time>
      </trkpt>
      <trkpt lat="42.99863" lon="-0.21658">
        <ele>1264.744</ele>
        <time>2021-02-12T20:18:03Z</time>
      </trkpt>
      <trkpt lat="42.99776" lon="-0.21698">
        <ele>1288.415</ele>
        <time>2021-02-12T20:18:23Z</time>
      </trkpt>
      <trkpt lat="42.9977" lon="-0.21716">
        <ele>1293.87</ele>
        <time>2021-02-12T20:18:43Z</time>
      </trkpt>
      <trkpt lat="42.9973" lon="-0.21747">
        <ele>1305.34</ele>
        <time>2021-02-12T20:19:03Z</time>
      </trkpt>
      <trkpt lat="42.9962" lon="-0.2177">
        <ele>1326.719</ele>
        <time>2021-02-12T20:19:23Z</time>
      </trkpt>
      <trkpt lat="42.99595" lon="-0.21798">
        <ele>1334.075</ele>
        <time>2016-10-27T21:12:55Z</time>
      </trkpt>
      <trkpt lat="42.9958" lon="-0.21816">
        <ele>1339.191</ele>
        <time>2021-02-12T20:20:03Z</time>
      </trkpt>
      <trkpt lat="42.99573" lon="-0.21841">
        <ele>1348.025</ele>
        <time>2016-10-27T21:13:15Z</time>
      </trkpt>
      <trkpt lat="42.99617" lon="-0.21837">
        <ele>1353.026</ele>
        <time>2016-10-27T21:13:35Z</time>
      </trkpt>
      <trkpt lat="42.99718" lon="-0.21873">
        <ele>1360.008</ele>
        <time>2016-10-27T21:13:55Z</time>
      </trkpt>
      <trkpt lat="42.99743" lon="-0.2191">
        <ele>1373.008</ele>
        <time>2016-10-27T21:14:15Z</time>
      </trkpt>
      <trkpt lat="42.99652" lon="-0.21944">
        <ele>1387.088</ele>
        <time>2016-10-27T21:14:35Z</time>
      </trkpt>
      <trkpt lat="42.99588" lon="-0.22006">
        <ele>1412.077</ele>
        <time>2016-10-27T21:14:55Z</time>
      </trkpt>
      <trkpt lat="42.99449" lon="-0.22092">
        <ele>1435.048</ele>
        <time>2016-10-27T21:15:15Z</time>
      </trkpt>
      <trkpt lat="42.99382" lon="-0.2226">
        <ele>1461.053</ele>
        <time>2016-10-27T21:15:35Z</time>
      </trkpt>
      <trkpt lat="42.99351" lon="-0.22384">
        <ele>1480.043</ele>
        <time>2016-10-27T21:15:55Z</time>
      </trkpt>
      <trkpt lat="42.99351" lon="-0.22449">
        <ele>1491.642</ele>
        <time>2021-02-12T20:23:23Z</time>
      </trkpt>
      <trkpt lat="42.99344" lon="-0.22476">
        <ele>1496.078</ele>
        <time>2021-02-12T20:23:43Z</time>
      </trkpt>
      <trkpt lat="42.99351" lon="-0.22517">
        <ele>1515.034</ele>
        <time>2016-10-27T21:16:15Z</time>
      </trkpt>
      <trkpt lat="42.99325" lon="-0.22554">
        <ele>1508.075</ele>
        <time>2016-10-27T21:16:35Z</time>
      </trkpt>
      <trkpt lat="42.99286" lon="-0.22566">
        <ele>1507.028</ele>
        <time>2016-10-27T21:16:55Z</time>
      </trkpt>
      <trkpt lat="42.99238" lon="-0.22605">
        <ele>1511.42</ele>
        <time>2021-02-12T20:25:03Z</time>
      </trkpt>
      <trkpt lat="42.99188" lon="-0.22597">
        <ele>1517.908</ele>
        <time>2021-02-12T20:25:23Z</time>
      </trkpt>
      <trkpt lat="42.99167" lon="-0.22599">
        <ele>1520.533</ele>
        <time>2021-02-12T20:25:43Z</time>
      </trkpt>
      <trkpt lat="42.99148" lon="-0.22612">
        <ele>1524.572</ele>
        <time>2021-02-12T20:26:03Z</time>
      </trkpt>
      <trkpt lat="42.99101" lon="-0.22638">
        <ele>1532.963</ele>
        <time>2021-02-12T20:26:23Z</time>
      </trkpt>
      <trkpt lat="42.99067" lon="-0.22676">
        <ele>1529.828</ele>
        <time>2021-02-12T20:26:43Z</time>
      </trkpt>
      <trkpt lat="42.99021" lon="-0.22687">
        <ele>1525.038</ele>
        <time>2016-10-27T21:18:35Z</time>
      </trkpt>
      <trkpt lat="42.98967" lon="-0.22656">
        <ele>1541.497</ele>
        <time>2021-02-12T20:27:23Z</time>
      </trkpt>
      <trkpt lat="42.98809" lon="-0.22697">
        <ele>1547.033</ele>
        <time>2016-10-27T21:19:15Z</time>
      </trkpt>
      <trkpt lat="42.98709" lon="-0.227">
        <ele>1561.049</ele>
        <time>2016-10-27T21:19:35Z</time>
      </trkpt>
      <trkpt lat="42.98652" lon="-0.2273">
        <ele>1561.074</ele>
        <time>2016-10-27T21:19:55Z</time>
      </trkpt>
      <trkpt lat="42.98573" lon="-0.22724">
        <ele>1563.456</ele>
        <time>2021-02-12T20:28:43Z</time>
      </trkpt>
      <trkpt lat="42.98494" lon="-0.227">
        <ele>1567.021</ele>
        <time>2016-10-27T21:20:35Z</time>
      </trkpt>
      <trkpt lat="42.98407" lon="-0.22742">
        <ele>1572.008</ele>
        <time>2016-10-27T21:20:55Z</time>
      </trkpt>
      <trkpt lat="42.98371" lon="-0.22742">
        <ele>1571.083</ele>
        <time>2016-10-27T21:21:15Z</time>
      </trkpt>
      <trkpt lat="42.98299" lon="-0.22753">
        <ele>1563.052</ele>
        <time>2016-10-27T21:21:35Z</time>
      </trkpt>
      <trkpt lat="42.98253" lon="-0.22798">
        <ele>1558.093</ele>
        <time>2016-10-27T21:21:55Z</time>
      </trkpt>
      <trkpt lat="42.98239" lon="-0.22833">
        <ele>1540.048</ele>
        <time>2016-10-27T21:22:15Z</time>
      </trkpt>
      <trkpt lat="42.98253" lon="-0.22895">
        <ele>1550.048</ele>
        <time>2016-10-27T21:22:35Z</time>
      </trkpt>
      <trkpt lat="42.98231" lon="-0.22963">
        <ele>1522.057</ele>
        <time>2016-10-27T21:22:55Z</time>
      </trkpt>
      <trkpt lat="42.98225" lon="-0.23069">
        <ele>1533.023</ele>
        <time>2016-10-27T21:23:15Z</time>
      </trkpt>
      <trkpt lat="42.98213" lon="-0.23094">
        <ele>1531.069</ele>
        <time>2016-10-27T21:23:35Z</time>
      </trkpt>
      <trkpt lat="42.98197" lon="-0.2309">
        <ele>1525.038</ele>
        <time>2016-10-27T21:23:55Z</time>
      </trkpt>
      <trkpt lat="42.98198" lon="-0.23137">
        <ele>1525.07</ele>
        <time>2016-10-27T21:24:15Z</time>
      </trkpt>
      <trkpt lat="42.98227" lon="-0.23206">
        <ele>1530.017</ele>
        <time>2016-10-27T21:24:35Z</time>
      </trkpt>
      <trkpt lat="42.98216" lon="-0.23264">
        <ele>1525.008</ele>
        <time>2016-10-27T21:24:55Z</time>
      </trkpt>
      <trkpt lat="42.98224" lon="-0.23294">
        <ele>1526.099</ele>
        <time>2016-10-27T21:25:15Z</time>
      </trkpt>
      <trkpt lat="42.98225" lon="-0.23348">
        <ele>1523.078</ele>
        <time>2016-10-27T21:25:35Z</time>
      </trkpt>
      <trkpt lat="42.98253" lon="-0.23455">
        <ele>1545.069</ele>
        <time>2016-10-27T21:25:55Z</time>
      </trkpt>
      <trkpt lat="42.98269" lon="-0.2347">
        <ele>1546.024</ele>
        <time>2016-10-27T21:26:15Z</time>
      </trkpt>
      <trkpt lat="42.98253" lon="-0.23502">
        <ele>1526.094</ele>
        <time>2016-10-27T21:26:35Z</time>
      </trkpt>
      <trkpt lat="42.98263" lon="-0.23581">
        <ele>1534.083</ele>
        <time>2016-10-27T21:26:55Z</time>
      </trkpt>
      <trkpt lat="42.98256" lon="-0.23656">
        <ele>1531.769</ele>
        <time>2021-02-12T20:35:43Z</time>
      </trkpt>
      <trkpt lat="42.9827" lon="-0.23713">
        <ele>1540.215</ele>
        <time>2021-02-12T20:36:03Z</time>
      </trkpt>
      <trkpt lat="42.98309" lon="-0.23795">
        <ele>1555.169</ele>
        <time>2021-02-12T20:36:23Z</time>
      </trkpt>
      <trkpt lat="42.98341" lon="-0.23902">
        <ele>1560.904</ele>
        <time>2021-02-12T20:36:43Z</time>
      </trkpt>
      <trkpt lat="42.98332" lon="-0.23941">
        <ele>1557.524</ele>
        <time>2021-02-12T20:37:03Z</time>
      </trkpt>
      <trkpt lat="42.98306" lon="-0.23967">
        <ele>1553.408</ele>
        <time>2021-02-12T20:37:23Z</time>
      </trkpt>
      <trkpt lat="42.98273" lon="-0.24064">
        <ele>1548.852</ele>
        <time>2021-02-12T20:37:43Z</time>
      </trkpt>
      <trkpt lat="42.98283" lon="-0.24094">
        <ele>1549.011</ele>
        <time>2016-10-27T21:28:55Z</time>
      </trkpt>
      <trkpt lat="42.98221" lon="-0.24152">
        <ele>1544.062</ele>
        <time>2021-02-12T20:38:23Z</time>
      </trkpt>
      <trkpt lat="42.98191" lon="-0.24165">
        <ele>1547.237</ele>
        <time>2021-02-12T20:38:43Z</time>
      </trkpt>
      <trkpt lat="42.98122" lon="-0.24231">
        <ele>1553.387</ele>
        <time>2021-02-12T20:39:03Z</time>
      </trkpt>
      <trkpt lat="42.98079" lon="-0.24259">
        <ele>1559.036</ele>
        <time>2016-10-27T21:30:15Z</time>
      </trkpt>
      <trkpt lat="42.98034" lon="-0.24272">
        <ele>1561.032</ele>
        <time>2016-10-27T21:30:35Z</time>
      </trkpt>
      <trkpt lat="42.98001" lon="-0.24302">
        <ele>1563.018</ele>
        <time>2016-10-27T21:30:55Z</time>
      </trkpt>
      <trkpt lat="42.97966" lon="-0.24311">
        <ele>1566.041</ele>
        <time>2016-10-27T21:31:15Z</time>
      </trkpt>
      <trkpt lat="42.97901" lon="-0.24407">
        <ele>1579.881</ele>
        <time>2021-02-12T20:40:43Z</time>
      </trkpt>
      <trkpt lat="42.97855" lon="-0.24423">
        <ele>1580.009</ele>
        <time>2016-10-27T21:31:55Z</time>
      </trkpt>
      <trkpt lat="42.978" lon="-0.24461">
        <ele>1579.308</ele>
        <time>2021-02-12T20:41:23Z</time>
      </trkpt>
      <trkpt lat="42.97614" lon="-0.24476">
        <ele>1558.01</ele>
        <time>2016-10-27T21:32:35Z</time>
      </trkpt>
      <trkpt lat="42.97578" lon="-0.24461">
        <ele>1544.089</ele>
        <time>2016-10-27T21:32:55Z</time>
      </trkpt>
      <trkpt lat="42.97527" lon="-0.24483">
        <ele>1540.07</ele>
        <time>2016-10-27T21:33:15Z</time>
      </trkpt>
      <trkpt lat="42.97472" lon="-0.24487">
        <ele>1532.035</ele>
        <time>2016-10-27T21:33:35Z</time>
      </trkpt>
      <trkpt lat="42.97385" lon="-0.24573">
        <ele>1536.035</ele>
        <time>2016-10-27T21:33:55Z</time>
      </trkpt>
      <trkpt lat="42.97366" lon="-0.2462">
        <ele>1535.014</ele>
        <time>2016-10-27T21:34:15Z</time>
      </trkpt>
      <trkpt lat="42.97321" lon="-0.24614">
        <ele>1546.03</ele>
        <time>2016-10-27T21:34:35Z</time>
      </trkpt>
      <trkpt lat="42.9726" lon="-0.24717">
        <ele>1545.066</ele>
        <time>2016-10-27T21:34:55Z</time>
      </trkpt>
      <trkpt lat="42.97252" lon="-0.24755">
        <ele>1546.044</ele>
        <time>2016-10-27T21:35:15Z</time>
      </trkpt>
      <trkpt lat="42.9722" lon="-0.24805">
        <ele>1545.005</ele>
        <time>2016-10-27T21:35:35Z</time>
      </trkpt>
      <trkpt lat="42.97165" lon="-0.24832">
        <ele>1549.015</ele>
        <time>2016-10-27T21:35:55Z</time>
      </trkpt>
      <trkpt lat="42.97134" lon="-0.24856">
        <ele>1549.008</ele>
        <time>2016-10-27T21:36:15Z</time>
      </trkpt>
      <trkpt lat="42.9712" lon="-0.24933">
        <ele>1555.06</ele>
        <time>2016-10-27T21:36:35Z</time>
      </trkpt>
      <trkpt lat="42.97087" lon="-0.25019">
        <ele>1560.069</ele>
        <time>2016-10-27T21:36:55Z</time>
      </trkpt>
      <trkpt lat="42.97085" lon="-0.25174">
        <ele>1570.03</ele>
        <time>2016-10-27T21:37:15Z</time>
      </trkpt>
      <trkpt lat="42.97079" lon="-0.25304">
        <ele>1582.085</ele>
        <time>2016-10-27T21:37:35Z</time>
      </trkpt>
      <trkpt lat="42.9706" lon="-0.25367">
        <ele>1578.075</ele>
        <time>2016-10-27T21:37:55Z</time>
      </trkpt>
      <trkpt lat="42.96986" lon="-0.25459">
        <ele>1588.064</ele>
        <time>2016-10-27T21:38:15Z</time>
      </trkpt>
      <trkpt lat="42.96949" lon="-0.25663">
        <ele>1590.05</ele>
        <time>2016-10-27T21:38:35Z</time>
      </trkpt>
      <trkpt lat="42.96942" lon="-0.25824">
        <ele>1596.056</ele>
        <time>2016-10-27T21:38:55Z</time>
      </trkpt>
      <trkpt lat="42.96958" lon="-0.25871">
        <ele>1597.041</ele>
        <time>2016-10-27T21:39:15Z</time>
      </trkpt>
      <trkpt lat="42.97007" lon="-0.2595">
        <ele>1587.081</ele>
        <time>2016-10-27T21:39:35Z</time>
      </trkpt>
      <trkpt lat="42.97029" lon="-0.26023">
        <ele>1585.009</ele>
        <time>2016-10-27T21:39:55Z</time>
      </trkpt>
      <trkpt lat="42.9701" lon="-0.26051">
        <ele>1584.008</ele>
        <time>2016-10-27T21:40:15Z</time>
      </trkpt>
      <trkpt lat="42.96958" lon="-0.26036">
        <ele>1590.07</ele>
        <time>2016-10-27T21:40:35Z</time>
      </trkpt>
      <trkpt lat="42.96927" lon="-0.26064">
        <ele>1586.089</ele>
        <time>2016-10-27T21:40:55Z</time>
      </trkpt>
      <trkpt lat="42.9684" lon="-0.26073">
        <ele>1583.02</ele>
        <time>2016-10-27T21:41:15Z</time>
      </trkpt>
      <trkpt lat="42.96737" lon="-0.26015">
        <ele>1581.045</ele>
        <time>2016-10-27T21:41:35Z</time>
      </trkpt>
      <trkpt lat="42.96622" lon="-0.2592">
        <ele>1575.055</ele>
        <time>2016-10-27T21:41:55Z</time>
      </trkpt>
      <trkpt lat="42.96404" lon="-0.25946">
        <ele>1532.014</ele>
        <time>2016-10-27T21:42:15Z</time>
      </trkpt>
      <trkpt lat="42.96376" lon="-0.25922">
        <ele>1529.02</ele>
        <time>2016-10-27T21:42:35Z</time>
      </trkpt>
      <trkpt lat="42.96256" lon="-0.2594">
        <ele>1500.056</ele>
        <time>2016-10-27T21:42:55Z</time>
      </trkpt>
      <trkpt lat="42.96237" lon="-0.25965">
        <ele>1487.094</ele>
        <time>2016-10-27T21:43:15Z</time>
      </trkpt>
      <trkpt lat="42.96192" lon="-0.25989">
        <ele>1483.057</ele>
        <time>2016-10-27T21:43:35Z</time>
      </trkpt>
      <trkpt lat="42.96164" lon="-0.2601">
        <ele>1479.022</ele>
        <time>2016-10-27T21:43:55Z</time>
      </trkpt>
      <trkpt lat="42.96154" lon="-0.2603">
        <ele>1476.008</ele>
        <time>2016-10-27T21:44:15Z</time>
      </trkpt>
      <trkpt lat="42.96121" lon="-0.2606">
        <ele>1474.055</ele>
        <time>2016-10-27T21:44:35Z</time>
      </trkpt>
      <trkpt lat="42.96113" lon="-0.26086">
        <ele>1472.034</ele>
        <time>2016-10-27T21:44:55Z</time>
      </trkpt>
      <trkpt lat="42.96077" lon="-0.26131">
        <ele>1470.045</ele>
        <time>2016-10-27T21:45:15Z</time>
      </trkpt>
      <trkpt lat="42.96058" lon="-0.2609">
        <ele>1471.03</ele>
        <time>2016-10-27T21:45:35Z</time>
      </trkpt>
      <trkpt lat="42.96032" lon="-0.26195">
        <ele>1474.05</ele>
        <time>2016-10-27T21:45:55Z</time>
      </trkpt>
      <trkpt lat="42.96027" lon="-0.26231">
        <ele>1475.059</ele>
        <time>2016-10-27T21:46:15Z</time>
      </trkpt>
      <trkpt lat="42.95961" lon="-0.26328">
        <ele>1479.015</ele>
        <time>2016-10-27T21:46:35Z</time>
      </trkpt>
      <trkpt lat="42.9595" lon="-0.26356">
        <ele>1476.021</ele>
        <time>2016-10-27T21:46:55Z</time>
      </trkpt>
      <trkpt lat="42.9587" lon="-0.26401">
        <ele>1479.064</ele>
        <time>2016-10-27T21:47:15Z</time>
      </trkpt>
      <trkpt lat="42.95843" lon="-0.26476">
        <ele>1484.006</ele>
        <time>2016-10-27T21:47:35Z</time>
      </trkpt>
      <trkpt lat="42.95798" lon="-0.26538">
        <ele>1488.016</ele>
        <time>2016-10-27T21:47:55Z</time>
      </trkpt>
      <trkpt lat="42.95743" lon="-0.26555">
        <ele>1489.008</ele>
        <time>2016-10-27T21:48:15Z</time>
      </trkpt>
      <trkpt lat="42.95696" lon="-0.26607">
        <ele>1501.022</ele>
        <time>2016-10-27T21:48:35Z</time>
      </trkpt>
      <trkpt lat="42.95661" lon="-0.26609">
        <ele>1495.021</ele>
        <time>2016-10-27T21:48:55Z</time>
      </trkpt>
      <trkpt lat="42.95612" lon="-0.26656">
        <ele>1496.072</ele>
        <time>2016-10-27T21:49:15Z</time>
      </trkpt>
      <trkpt lat="42.95586" lon="-0.26699">
        <ele>1507.017</ele>
        <time>2016-10-27T21:49:35Z</time>
      </trkpt>
      <trkpt lat="42.95567" lon="-0.2686">
        <ele>1510.067</ele>
        <time>2016-10-27T21:49:55Z</time>
      </trkpt>
      <trkpt lat="42.95531" lon="-0.2695">
        <ele>1518.066</ele>
        <time>2016-10-27T21:50:15Z</time>
      </trkpt>
      <trkpt lat="42.95529" lon="-0.26993">
        <ele>1520.082</ele>
        <time>2016-10-27T21:50:35Z</time>
      </trkpt>
      <trkpt lat="42.95493" lon="-0.27038">
        <ele>1525.081</ele>
        <time>2016-10-27T21:51:15Z</time>
      </trkpt>
      <trkpt lat="42.95474" lon="-0.27087">
        <ele>1530.061</ele>
        <time>2016-10-27T21:51:35Z</time>
      </trkpt>
    </trkseg>
  </trk>
</gpx>